<?xml version="1.0" encoding="UTF-8" standalone="no" ?>
<gpx xmlns="http://www.topografix.com/GPX/1/1" xmlns:xsi="http://www.w3.org/2001/XMLSchema-instance" xsi:schemaLocation="http://www.topografix.com/GPX/1/1 http://www.topografix.com/GPX/1/1/gpx.xsd" version="1.1" creator="VisuGPX - https://www.visugpx.com">
  <metadata>
    <name>Activité de Randonnée TwoNav</name>
    <desc><![CDATA[2022-07-13_210843.trk]]></desc>
  </metadata>
  <trk>
    <name><![CDATA[Activité de Randonnée TwoNav_1]]></name>
    <trkseg>
      <trkpt lat="49.12953" lon="7.31408">
        <ele>365.3</ele>
        <time>2022-07-13T19:08:43Z</time>
      </trkpt>
      <trkpt lat="49.12954" lon="7.31421">
        <ele>364.6</ele>
        <time>2022-07-13T19:08:44Z</time>
      </trkpt>
      <trkpt lat="49.12954" lon="7.31431">
        <ele>364.1</ele>
        <time>2022-07-13T19:08:52Z</time>
      </trkpt>
      <trkpt lat="49.12954" lon="7.31442">
        <ele>363.5</ele>
        <time>2022-07-13T19:09:01Z</time>
      </trkpt>
      <trkpt lat="49.12954" lon="7.31453">
        <ele>363</ele>
        <time>2022-07-13T19:09:10Z</time>
      </trkpt>
      <trkpt lat="49.12954" lon="7.31464">
        <ele>362.5</ele>
        <time>2022-07-13T19:09:19Z</time>
      </trkpt>
      <trkpt lat="49.12954" lon="7.31475">
        <ele>362</ele>
        <time>2022-07-13T19:09:28Z</time>
      </trkpt>
      <trkpt lat="49.12954" lon="7.31486">
        <ele>361.6</ele>
        <time>2022-07-13T19:09:36Z</time>
      </trkpt>
      <trkpt lat="49.12955" lon="7.31497">
        <ele>361.1</ele>
        <time>2022-07-13T19:09:36Z</time>
      </trkpt>
      <trkpt lat="49.12955" lon="7.31511">
        <ele>360.3</ele>
        <time>2022-07-13T19:09:44Z</time>
      </trkpt>
      <trkpt lat="49.12955" lon="7.31525">
        <ele>359.5</ele>
        <time>2022-07-13T19:09:52Z</time>
      </trkpt>
      <trkpt lat="49.12956" lon="7.3154">
        <ele>358.7</ele>
        <time>2022-07-13T19:10:00Z</time>
      </trkpt>
      <trkpt lat="49.12956" lon="7.31552">
        <ele>358.1</ele>
        <time>2022-07-13T19:10:10Z</time>
      </trkpt>
      <trkpt lat="49.12955" lon="7.31553">
        <ele>358.1</ele>
        <time>2022-07-13T19:10:11Z</time>
      </trkpt>
      <trkpt lat="49.12954" lon="7.31567">
        <ele>357.1</ele>
        <time>2022-07-13T19:10:20Z</time>
      </trkpt>
      <trkpt lat="49.12949" lon="7.31579">
        <ele>356.2</ele>
        <time>2022-07-13T19:10:27Z</time>
      </trkpt>
      <trkpt lat="49.12944" lon="7.31591">
        <ele>355.3</ele>
        <time>2022-07-13T19:10:35Z</time>
      </trkpt>
      <trkpt lat="49.1294" lon="7.31605">
        <ele>354.3</ele>
        <time>2022-07-13T19:10:44Z</time>
      </trkpt>
      <trkpt lat="49.12937" lon="7.31618">
        <ele>353.4</ele>
        <time>2022-07-13T19:10:51Z</time>
      </trkpt>
      <trkpt lat="49.12933" lon="7.3163">
        <ele>352.5</ele>
        <time>2022-07-13T19:10:58Z</time>
      </trkpt>
      <trkpt lat="49.12931" lon="7.31645">
        <ele>351.7</ele>
        <time>2022-07-13T19:11:07Z</time>
      </trkpt>
      <trkpt lat="49.12931" lon="7.3166">
        <ele>350.8</ele>
        <time>2022-07-13T19:11:16Z</time>
      </trkpt>
      <trkpt lat="49.12936" lon="7.31673">
        <ele>350.1</ele>
        <time>2022-07-13T19:11:27Z</time>
      </trkpt>
      <trkpt lat="49.1294" lon="7.31687">
        <ele>349.6</ele>
        <time>2022-07-13T19:11:37Z</time>
      </trkpt>
      <trkpt lat="49.12944" lon="7.31701">
        <ele>349.2</ele>
        <time>2022-07-13T19:11:44Z</time>
      </trkpt>
      <trkpt lat="49.12947" lon="7.31714">
        <ele>348.9</ele>
        <time>2022-07-13T19:11:50Z</time>
      </trkpt>
      <trkpt lat="49.12951" lon="7.31727">
        <ele>348.7</ele>
        <time>2022-07-13T19:11:55Z</time>
      </trkpt>
      <trkpt lat="49.12954" lon="7.31742">
        <ele>348.4</ele>
        <time>2022-07-13T19:12:03Z</time>
      </trkpt>
      <trkpt lat="49.12955" lon="7.31758">
        <ele>348</ele>
        <time>2022-07-13T19:12:12Z</time>
      </trkpt>
      <trkpt lat="49.12957" lon="7.31772">
        <ele>347.5</ele>
        <time>2022-07-13T19:12:26Z</time>
      </trkpt>
      <trkpt lat="49.12958" lon="7.31785">
        <ele>347</ele>
        <time>2022-07-13T19:12:36Z</time>
      </trkpt>
      <trkpt lat="49.12959" lon="7.31801">
        <ele>346.2</ele>
        <time>2022-07-13T19:12:45Z</time>
      </trkpt>
      <trkpt lat="49.12955" lon="7.31815">
        <ele>345.5</ele>
        <time>2022-07-13T19:12:52Z</time>
      </trkpt>
      <trkpt lat="49.12958" lon="7.31829">
        <ele>344.9</ele>
        <time>2022-07-13T19:13:01Z</time>
      </trkpt>
      <trkpt lat="49.12962" lon="7.31842">
        <ele>344.3</ele>
        <time>2022-07-13T19:13:09Z</time>
      </trkpt>
      <trkpt lat="49.12967" lon="7.31854">
        <ele>343.7</ele>
        <time>2022-07-13T19:13:16Z</time>
      </trkpt>
      <trkpt lat="49.12972" lon="7.31868">
        <ele>343</ele>
        <time>2022-07-13T19:13:23Z</time>
      </trkpt>
      <trkpt lat="49.12977" lon="7.31881">
        <ele>342.3</ele>
        <time>2022-07-13T19:13:30Z</time>
      </trkpt>
      <trkpt lat="49.12985" lon="7.31889">
        <ele>341.6</ele>
        <time>2022-07-13T19:13:37Z</time>
      </trkpt>
      <trkpt lat="49.12992" lon="7.31897">
        <ele>340.9</ele>
        <time>2022-07-13T19:13:44Z</time>
      </trkpt>
      <trkpt lat="49.12996" lon="7.31911">
        <ele>340.2</ele>
        <time>2022-07-13T19:13:53Z</time>
      </trkpt>
      <trkpt lat="49.13004" lon="7.31918">
        <ele>339.4</ele>
        <time>2022-07-13T19:14:01Z</time>
      </trkpt>
      <trkpt lat="49.13009" lon="7.31929">
        <ele>338.5</ele>
        <time>2022-07-13T19:14:09Z</time>
      </trkpt>
      <trkpt lat="49.13018" lon="7.31936">
        <ele>337.6</ele>
        <time>2022-07-13T19:14:21Z</time>
      </trkpt>
      <trkpt lat="49.13026" lon="7.31942">
        <ele>336.6</ele>
        <time>2022-07-13T19:14:30Z</time>
      </trkpt>
      <trkpt lat="49.13034" lon="7.31949">
        <ele>335.6</ele>
        <time>2022-07-13T19:14:39Z</time>
      </trkpt>
      <trkpt lat="49.13042" lon="7.31955">
        <ele>334.6</ele>
        <time>2022-07-13T19:14:52Z</time>
      </trkpt>
      <trkpt lat="49.13049" lon="7.31963">
        <ele>333.6</ele>
        <time>2022-07-13T19:14:58Z</time>
      </trkpt>
      <trkpt lat="49.13057" lon="7.31972">
        <ele>332.5</ele>
        <time>2022-07-13T19:15:06Z</time>
      </trkpt>
      <trkpt lat="49.13062" lon="7.31985">
        <ele>331.6</ele>
        <time>2022-07-13T19:15:17Z</time>
      </trkpt>
      <trkpt lat="49.13071" lon="7.31992">
        <ele>330.6</ele>
        <time>2022-07-13T19:15:25Z</time>
      </trkpt>
      <trkpt lat="49.13077" lon="7.32006">
        <ele>329.5</ele>
        <time>2022-07-13T19:15:32Z</time>
      </trkpt>
      <trkpt lat="49.13082" lon="7.3202">
        <ele>328.6</ele>
        <time>2022-07-13T19:15:38Z</time>
      </trkpt>
      <trkpt lat="49.13087" lon="7.32032">
        <ele>327.8</ele>
        <time>2022-07-13T19:15:42Z</time>
      </trkpt>
      <trkpt lat="49.13092" lon="7.32045">
        <ele>326.9</ele>
        <time>2022-07-13T19:15:49Z</time>
      </trkpt>
      <trkpt lat="49.13099" lon="7.32056">
        <ele>326.1</ele>
        <time>2022-07-13T19:15:56Z</time>
      </trkpt>
      <trkpt lat="49.13109" lon="7.3205">
        <ele>325.2</ele>
        <time>2022-07-13T19:16:35Z</time>
      </trkpt>
      <trkpt lat="49.13117" lon="7.32056">
        <ele>324.5</ele>
        <time>2022-07-13T19:16:41Z</time>
      </trkpt>
      <trkpt lat="49.13124" lon="7.32067">
        <ele>323.6</ele>
        <time>2022-07-13T19:16:55Z</time>
      </trkpt>
      <trkpt lat="49.13131" lon="7.32075">
        <ele>322.8</ele>
        <time>2022-07-13T19:17:04Z</time>
      </trkpt>
      <trkpt lat="49.13139" lon="7.32082">
        <ele>321.9</ele>
        <time>2022-07-13T19:17:12Z</time>
      </trkpt>
      <trkpt lat="49.13147" lon="7.32091">
        <ele>321</ele>
        <time>2022-07-13T19:17:16Z</time>
      </trkpt>
      <trkpt lat="49.13152" lon="7.32104">
        <ele>320.2</ele>
        <time>2022-07-13T19:17:21Z</time>
      </trkpt>
      <trkpt lat="49.13158" lon="7.32115">
        <ele>319.5</ele>
        <time>2022-07-13T19:17:27Z</time>
      </trkpt>
      <trkpt lat="49.13164" lon="7.32128">
        <ele>318.9</ele>
        <time>2022-07-13T19:17:34Z</time>
      </trkpt>
      <trkpt lat="49.1317" lon="7.32138">
        <ele>318.5</ele>
        <time>2022-07-13T19:17:41Z</time>
      </trkpt>
      <trkpt lat="49.13175" lon="7.32152">
        <ele>318</ele>
        <time>2022-07-13T19:17:45Z</time>
      </trkpt>
      <trkpt lat="49.1318" lon="7.32164">
        <ele>317.6</ele>
        <time>2022-07-13T19:17:52Z</time>
      </trkpt>
      <trkpt lat="49.13184" lon="7.32178">
        <ele>317.3</ele>
        <time>2022-07-13T19:17:56Z</time>
      </trkpt>
      <trkpt lat="49.13188" lon="7.32192">
        <ele>317</ele>
        <time>2022-07-13T19:18:05Z</time>
      </trkpt>
      <trkpt lat="49.13191" lon="7.32206">
        <ele>316.7</ele>
        <time>2022-07-13T19:18:14Z</time>
      </trkpt>
      <trkpt lat="49.13197" lon="7.3222">
        <ele>316.4</ele>
        <time>2022-07-13T19:18:24Z</time>
      </trkpt>
      <trkpt lat="49.13202" lon="7.32232">
        <ele>316.1</ele>
        <time>2022-07-13T19:18:27Z</time>
      </trkpt>
      <trkpt lat="49.13204" lon="7.32247">
        <ele>315.9</ele>
        <time>2022-07-13T19:18:33Z</time>
      </trkpt>
      <trkpt lat="49.1321" lon="7.32259">
        <ele>315.7</ele>
        <time>2022-07-13T19:18:41Z</time>
      </trkpt>
      <trkpt lat="49.13218" lon="7.32269">
        <ele>315.4</ele>
        <time>2022-07-13T19:18:52Z</time>
      </trkpt>
      <trkpt lat="49.1322" lon="7.32283">
        <ele>315.2</ele>
        <time>2022-07-13T19:18:56Z</time>
      </trkpt>
      <trkpt lat="49.13223" lon="7.32297">
        <ele>315.1</ele>
        <time>2022-07-13T19:19:02Z</time>
      </trkpt>
      <trkpt lat="49.13231" lon="7.32305">
        <ele>314.9</ele>
        <time>2022-07-13T19:19:10Z</time>
      </trkpt>
      <trkpt lat="49.13237" lon="7.32316">
        <ele>314.7</ele>
        <time>2022-07-13T19:19:20Z</time>
      </trkpt>
      <trkpt lat="49.13242" lon="7.32329">
        <ele>314.6</ele>
        <time>2022-07-13T19:19:28Z</time>
      </trkpt>
      <trkpt lat="49.13244" lon="7.32343">
        <ele>314.5</ele>
        <time>2022-07-13T19:19:34Z</time>
      </trkpt>
      <trkpt lat="49.13247" lon="7.32357">
        <ele>314.4</ele>
        <time>2022-07-13T19:19:43Z</time>
      </trkpt>
      <trkpt lat="49.1325" lon="7.32373">
        <ele>314.3</ele>
        <time>2022-07-13T19:19:54Z</time>
      </trkpt>
      <trkpt lat="49.13247" lon="7.32392">
        <ele>314.1</ele>
        <time>2022-07-13T19:20:01Z</time>
      </trkpt>
      <trkpt lat="49.13241" lon="7.32404">
        <ele>314</ele>
        <time>2022-07-13T19:20:05Z</time>
      </trkpt>
      <trkpt lat="49.13235" lon="7.32416">
        <ele>313.9</ele>
        <time>2022-07-13T19:20:10Z</time>
      </trkpt>
      <trkpt lat="49.13228" lon="7.32425">
        <ele>313.8</ele>
        <time>2022-07-13T19:20:17Z</time>
      </trkpt>
      <trkpt lat="49.13222" lon="7.32436">
        <ele>313.7</ele>
        <time>2022-07-13T19:20:24Z</time>
      </trkpt>
      <trkpt lat="49.13215" lon="7.32449">
        <ele>313.6</ele>
        <time>2022-07-13T19:20:30Z</time>
      </trkpt>
      <trkpt lat="49.13209" lon="7.3246">
        <ele>313.5</ele>
        <time>2022-07-13T19:20:37Z</time>
      </trkpt>
      <trkpt lat="49.13202" lon="7.3247">
        <ele>313.4</ele>
        <time>2022-07-13T19:20:46Z</time>
      </trkpt>
      <trkpt lat="49.13204" lon="7.32485">
        <ele>313.2</ele>
        <time>2022-07-13T19:20:54Z</time>
      </trkpt>
      <trkpt lat="49.13206" lon="7.325">
        <ele>313</ele>
        <time>2022-07-13T19:20:59Z</time>
      </trkpt>
      <trkpt lat="49.1321" lon="7.32513">
        <ele>312.8</ele>
        <time>2022-07-13T19:21:04Z</time>
      </trkpt>
      <trkpt lat="49.13217" lon="7.32524">
        <ele>312.7</ele>
        <time>2022-07-13T19:21:08Z</time>
      </trkpt>
      <trkpt lat="49.13227" lon="7.3252">
        <ele>312.7</ele>
        <time>2022-07-13T19:21:22Z</time>
      </trkpt>
      <trkpt lat="49.13235" lon="7.32514">
        <ele>312.4</ele>
        <time>2022-07-13T19:21:35Z</time>
      </trkpt>
      <trkpt lat="49.13246" lon="7.32513">
        <ele>312.2</ele>
        <time>2022-07-13T19:21:41Z</time>
      </trkpt>
      <trkpt lat="49.13255" lon="7.32514">
        <ele>312</ele>
        <time>2022-07-13T19:21:47Z</time>
      </trkpt>
      <trkpt lat="49.13265" lon="7.32517">
        <ele>311.8</ele>
        <time>2022-07-13T19:21:53Z</time>
      </trkpt>
      <trkpt lat="49.13275" lon="7.32519">
        <ele>311.5</ele>
        <time>2022-07-13T19:21:58Z</time>
      </trkpt>
      <trkpt lat="49.13284" lon="7.32522">
        <ele>311.3</ele>
        <time>2022-07-13T19:22:02Z</time>
      </trkpt>
      <trkpt lat="49.13293" lon="7.32518">
        <ele>311.1</ele>
        <time>2022-07-13T19:22:07Z</time>
      </trkpt>
      <trkpt lat="49.13303" lon="7.32513">
        <ele>310.8</ele>
        <time>2022-07-13T19:22:13Z</time>
      </trkpt>
      <trkpt lat="49.13312" lon="7.32512">
        <ele>310.5</ele>
        <time>2022-07-13T19:22:21Z</time>
      </trkpt>
      <trkpt lat="49.13321" lon="7.32516">
        <ele>310.2</ele>
        <time>2022-07-13T19:22:27Z</time>
      </trkpt>
      <trkpt lat="49.1333" lon="7.32512">
        <ele>309.9</ele>
        <time>2022-07-13T19:22:31Z</time>
      </trkpt>
      <trkpt lat="49.1334" lon="7.3251">
        <ele>309.5</ele>
        <time>2022-07-13T19:22:35Z</time>
      </trkpt>
      <trkpt lat="49.13348" lon="7.32517">
        <ele>309.2</ele>
        <time>2022-07-13T19:22:39Z</time>
      </trkpt>
      <trkpt lat="49.13354" lon="7.32529">
        <ele>308.9</ele>
        <time>2022-07-13T19:22:45Z</time>
      </trkpt>
      <trkpt lat="49.13363" lon="7.32531">
        <ele>308.6</ele>
        <time>2022-07-13T19:22:53Z</time>
      </trkpt>
      <trkpt lat="49.13373" lon="7.32534">
        <ele>308.4</ele>
        <time>2022-07-13T19:23:00Z</time>
      </trkpt>
      <trkpt lat="49.13382" lon="7.32537">
        <ele>308.2</ele>
        <time>2022-07-13T19:23:07Z</time>
      </trkpt>
      <trkpt lat="49.13392" lon="7.32534">
        <ele>308</ele>
        <time>2022-07-13T19:23:20Z</time>
      </trkpt>
      <trkpt lat="49.13402" lon="7.32535">
        <ele>307.9</ele>
        <time>2022-07-13T19:23:26Z</time>
      </trkpt>
      <trkpt lat="49.1341" lon="7.32538">
        <ele>307.9</ele>
        <time>2022-07-13T19:23:37Z</time>
      </trkpt>
      <trkpt lat="49.13419" lon="7.32539">
        <ele>307.9</ele>
        <time>2022-07-13T19:23:42Z</time>
      </trkpt>
      <trkpt lat="49.1343" lon="7.32538">
        <ele>307.9</ele>
        <time>2022-07-13T19:23:49Z</time>
      </trkpt>
      <trkpt lat="49.1344" lon="7.32543">
        <ele>308.1</ele>
        <time>2022-07-13T19:23:56Z</time>
      </trkpt>
      <trkpt lat="49.1345" lon="7.32539">
        <ele>308.3</ele>
        <time>2022-07-13T19:24:02Z</time>
      </trkpt>
      <trkpt lat="49.13457" lon="7.32549">
        <ele>308.6</ele>
        <time>2022-07-13T19:24:11Z</time>
      </trkpt>
      <trkpt lat="49.13464" lon="7.3256">
        <ele>308.6</ele>
        <time>2022-07-13T19:24:16Z</time>
      </trkpt>
      <trkpt lat="49.13466" lon="7.32574">
        <ele>308.2</ele>
        <time>2022-07-13T19:24:22Z</time>
      </trkpt>
      <trkpt lat="49.13468" lon="7.32589">
        <ele>307.7</ele>
        <time>2022-07-13T19:24:34Z</time>
      </trkpt>
      <trkpt lat="49.13471" lon="7.32602">
        <ele>307.3</ele>
        <time>2022-07-13T19:24:39Z</time>
      </trkpt>
      <trkpt lat="49.13473" lon="7.32617">
        <ele>307</ele>
        <time>2022-07-13T19:24:46Z</time>
      </trkpt>
      <trkpt lat="49.13474" lon="7.32631">
        <ele>307</ele>
        <time>2022-07-13T19:24:53Z</time>
      </trkpt>
      <trkpt lat="49.13471" lon="7.32647">
        <ele>307.3</ele>
        <time>2022-07-13T19:25:02Z</time>
      </trkpt>
      <trkpt lat="49.13474" lon="7.32661">
        <ele>307.7</ele>
        <time>2022-07-13T19:25:10Z</time>
      </trkpt>
      <trkpt lat="49.13475" lon="7.32675">
        <ele>308.1</ele>
        <time>2022-07-13T19:25:15Z</time>
      </trkpt>
      <trkpt lat="49.13475" lon="7.32689">
        <ele>308.6</ele>
        <time>2022-07-13T19:25:21Z</time>
      </trkpt>
      <trkpt lat="49.13468" lon="7.32699">
        <ele>309.1</ele>
        <time>2022-07-13T19:25:28Z</time>
      </trkpt>
      <trkpt lat="49.13467" lon="7.32714">
        <ele>309.6</ele>
        <time>2022-07-13T19:25:36Z</time>
      </trkpt>
      <trkpt lat="49.13458" lon="7.32719">
        <ele>310.1</ele>
        <time>2022-07-13T19:25:40Z</time>
      </trkpt>
      <trkpt lat="49.13451" lon="7.32727">
        <ele>310.6</ele>
        <time>2022-07-13T19:25:47Z</time>
      </trkpt>
      <trkpt lat="49.13441" lon="7.32731">
        <ele>311.2</ele>
        <time>2022-07-13T19:25:51Z</time>
      </trkpt>
      <trkpt lat="49.13433" lon="7.3274">
        <ele>311.7</ele>
        <time>2022-07-13T19:25:58Z</time>
      </trkpt>
      <trkpt lat="49.13428" lon="7.32752">
        <ele>312.2</ele>
        <time>2022-07-13T19:26:03Z</time>
      </trkpt>
      <trkpt lat="49.13425" lon="7.32765">
        <ele>312.6</ele>
        <time>2022-07-13T19:26:09Z</time>
      </trkpt>
      <trkpt lat="49.13423" lon="7.3278">
        <ele>313.1</ele>
        <time>2022-07-13T19:26:16Z</time>
      </trkpt>
      <trkpt lat="49.1342" lon="7.32795">
        <ele>313.4</ele>
        <time>2022-07-13T19:26:23Z</time>
      </trkpt>
      <trkpt lat="49.13416" lon="7.32809">
        <ele>313.7</ele>
        <time>2022-07-13T19:26:28Z</time>
      </trkpt>
      <trkpt lat="49.13416" lon="7.32824">
        <ele>314</ele>
        <time>2022-07-13T19:26:35Z</time>
      </trkpt>
      <trkpt lat="49.13412" lon="7.32838">
        <ele>314.2</ele>
        <time>2022-07-13T19:26:44Z</time>
      </trkpt>
      <trkpt lat="49.13414" lon="7.32852">
        <ele>314.4</ele>
        <time>2022-07-13T19:26:50Z</time>
      </trkpt>
      <trkpt lat="49.13417" lon="7.32867">
        <ele>314.7</ele>
        <time>2022-07-13T19:26:56Z</time>
      </trkpt>
      <trkpt lat="49.13421" lon="7.3288">
        <ele>314.9</ele>
        <time>2022-07-13T19:27:04Z</time>
      </trkpt>
      <trkpt lat="49.13413" lon="7.32891">
        <ele>315.1</ele>
        <time>2022-07-13T19:27:10Z</time>
      </trkpt>
      <trkpt lat="49.13409" lon="7.32904">
        <ele>315.3</ele>
        <time>2022-07-13T19:27:16Z</time>
      </trkpt>
      <trkpt lat="49.1341" lon="7.32919">
        <ele>315.5</ele>
        <time>2022-07-13T19:27:23Z</time>
      </trkpt>
      <trkpt lat="49.13406" lon="7.32932">
        <ele>315.6</ele>
        <time>2022-07-13T19:27:31Z</time>
      </trkpt>
      <trkpt lat="49.13399" lon="7.32944">
        <ele>315.8</ele>
        <time>2022-07-13T19:27:39Z</time>
      </trkpt>
      <trkpt lat="49.13398" lon="7.32958">
        <ele>316</ele>
        <time>2022-07-13T19:27:45Z</time>
      </trkpt>
      <trkpt lat="49.1339" lon="7.32968">
        <ele>316.2</ele>
        <time>2022-07-13T19:27:57Z</time>
      </trkpt>
      <trkpt lat="49.13385" lon="7.3298">
        <ele>316.3</ele>
        <time>2022-07-13T19:28:03Z</time>
      </trkpt>
      <trkpt lat="49.13379" lon="7.32991">
        <ele>316.4</ele>
        <time>2022-07-13T19:28:13Z</time>
      </trkpt>
      <trkpt lat="49.13374" lon="7.33004">
        <ele>316.5</ele>
        <time>2022-07-13T19:28:22Z</time>
      </trkpt>
      <trkpt lat="49.13372" lon="7.33018">
        <ele>316.5</ele>
        <time>2022-07-13T19:28:29Z</time>
      </trkpt>
      <trkpt lat="49.13368" lon="7.33033">
        <ele>316.4</ele>
        <time>2022-07-13T19:28:38Z</time>
      </trkpt>
      <trkpt lat="49.13362" lon="7.33046">
        <ele>316.3</ele>
        <time>2022-07-13T19:28:44Z</time>
      </trkpt>
      <trkpt lat="49.13357" lon="7.3306">
        <ele>316.1</ele>
        <time>2022-07-13T19:28:50Z</time>
      </trkpt>
      <trkpt lat="49.13355" lon="7.33074">
        <ele>316</ele>
        <time>2022-07-13T19:28:56Z</time>
      </trkpt>
      <trkpt lat="49.13353" lon="7.33087">
        <ele>315.9</ele>
        <time>2022-07-13T19:29:03Z</time>
      </trkpt>
      <trkpt lat="49.1335" lon="7.33101">
        <ele>315.8</ele>
        <time>2022-07-13T19:29:13Z</time>
      </trkpt>
      <trkpt lat="49.13345" lon="7.33112">
        <ele>315.5</ele>
        <time>2022-07-13T19:29:20Z</time>
      </trkpt>
      <trkpt lat="49.13346" lon="7.33126">
        <ele>315.4</ele>
        <time>2022-07-13T19:29:29Z</time>
      </trkpt>
      <trkpt lat="49.13348" lon="7.33141">
        <ele>315.3</ele>
        <time>2022-07-13T19:29:37Z</time>
      </trkpt>
      <trkpt lat="49.13347" lon="7.33155">
        <ele>315.2</ele>
        <time>2022-07-13T19:29:45Z</time>
      </trkpt>
      <trkpt lat="49.13346" lon="7.33169">
        <ele>315.1</ele>
        <time>2022-07-13T19:29:50Z</time>
      </trkpt>
      <trkpt lat="49.13346" lon="7.33184">
        <ele>315</ele>
        <time>2022-07-13T19:29:58Z</time>
      </trkpt>
      <trkpt lat="49.1335" lon="7.33197">
        <ele>314.9</ele>
        <time>2022-07-13T19:30:07Z</time>
      </trkpt>
      <trkpt lat="49.13352" lon="7.33212">
        <ele>314.9</ele>
        <time>2022-07-13T19:30:15Z</time>
      </trkpt>
      <trkpt lat="49.13349" lon="7.33226">
        <ele>315</ele>
        <time>2022-07-13T19:30:21Z</time>
      </trkpt>
      <trkpt lat="49.13347" lon="7.33241">
        <ele>315</ele>
        <time>2022-07-13T19:30:28Z</time>
      </trkpt>
      <trkpt lat="49.13349" lon="7.33254">
        <ele>315.1</ele>
        <time>2022-07-13T19:30:35Z</time>
      </trkpt>
      <trkpt lat="49.13346" lon="7.33268">
        <ele>315.2</ele>
        <time>2022-07-13T19:30:43Z</time>
      </trkpt>
      <trkpt lat="49.13348" lon="7.33282">
        <ele>315.3</ele>
        <time>2022-07-13T19:30:50Z</time>
      </trkpt>
      <trkpt lat="49.13346" lon="7.33296">
        <ele>315.5</ele>
        <time>2022-07-13T19:30:59Z</time>
      </trkpt>
      <trkpt lat="49.13346" lon="7.3331">
        <ele>315.6</ele>
        <time>2022-07-13T19:31:05Z</time>
      </trkpt>
      <trkpt lat="49.13349" lon="7.33324">
        <ele>315.8</ele>
        <time>2022-07-13T19:31:13Z</time>
      </trkpt>
      <trkpt lat="49.13352" lon="7.33337">
        <ele>316</ele>
        <time>2022-07-13T19:31:21Z</time>
      </trkpt>
      <trkpt lat="49.13351" lon="7.33352">
        <ele>316.2</ele>
        <time>2022-07-13T19:31:27Z</time>
      </trkpt>
      <trkpt lat="49.13351" lon="7.33367">
        <ele>316.4</ele>
        <time>2022-07-13T19:31:34Z</time>
      </trkpt>
      <trkpt lat="49.13347" lon="7.33381">
        <ele>316.6</ele>
        <time>2022-07-13T19:31:40Z</time>
      </trkpt>
      <trkpt lat="49.13343" lon="7.33394">
        <ele>316.7</ele>
        <time>2022-07-13T19:31:46Z</time>
      </trkpt>
      <trkpt lat="49.13341" lon="7.33409">
        <ele>316.8</ele>
        <time>2022-07-13T19:31:55Z</time>
      </trkpt>
      <trkpt lat="49.13333" lon="7.33419">
        <ele>316.8</ele>
        <time>2022-07-13T19:32:02Z</time>
      </trkpt>
      <trkpt lat="49.13328" lon="7.33434">
        <ele>316.9</ele>
        <time>2022-07-13T19:32:08Z</time>
      </trkpt>
      <trkpt lat="49.13325" lon="7.33449">
        <ele>317.1</ele>
        <time>2022-07-13T19:32:14Z</time>
      </trkpt>
      <trkpt lat="49.13324" lon="7.33463">
        <ele>317.2</ele>
        <time>2022-07-13T19:32:22Z</time>
      </trkpt>
      <trkpt lat="49.13327" lon="7.33477">
        <ele>317.4</ele>
        <time>2022-07-13T19:32:30Z</time>
      </trkpt>
      <trkpt lat="49.13328" lon="7.33491">
        <ele>317.6</ele>
        <time>2022-07-13T19:32:36Z</time>
      </trkpt>
      <trkpt lat="49.13327" lon="7.33505">
        <ele>317.8</ele>
        <time>2022-07-13T19:32:42Z</time>
      </trkpt>
      <trkpt lat="49.13326" lon="7.33521">
        <ele>318</ele>
        <time>2022-07-13T19:32:50Z</time>
      </trkpt>
      <trkpt lat="49.13328" lon="7.33535">
        <ele>318.1</ele>
        <time>2022-07-13T19:32:58Z</time>
      </trkpt>
      <trkpt lat="49.13327" lon="7.3355">
        <ele>318.2</ele>
        <time>2022-07-13T19:33:03Z</time>
      </trkpt>
      <trkpt lat="49.13329" lon="7.33564">
        <ele>318.4</ele>
        <time>2022-07-13T19:33:09Z</time>
      </trkpt>
      <trkpt lat="49.1333" lon="7.33579">
        <ele>318.5</ele>
        <time>2022-07-13T19:33:15Z</time>
      </trkpt>
      <trkpt lat="49.13329" lon="7.33594">
        <ele>318.7</ele>
        <time>2022-07-13T19:33:23Z</time>
      </trkpt>
      <trkpt lat="49.1333" lon="7.33609">
        <ele>318.7</ele>
        <time>2022-07-13T19:33:33Z</time>
      </trkpt>
      <trkpt lat="49.13327" lon="7.33625">
        <ele>318.7</ele>
        <time>2022-07-13T19:33:41Z</time>
      </trkpt>
      <trkpt lat="49.13327" lon="7.3364">
        <ele>318.7</ele>
        <time>2022-07-13T19:33:50Z</time>
      </trkpt>
      <trkpt lat="49.13325" lon="7.33654">
        <ele>318.6</ele>
        <time>2022-07-13T19:33:58Z</time>
      </trkpt>
      <trkpt lat="49.13328" lon="7.3367">
        <ele>318.5</ele>
        <time>2022-07-13T19:34:05Z</time>
      </trkpt>
      <trkpt lat="49.13322" lon="7.33683">
        <ele>318.3</ele>
        <time>2022-07-13T19:34:12Z</time>
      </trkpt>
      <trkpt lat="49.13322" lon="7.33699">
        <ele>318.1</ele>
        <time>2022-07-13T19:34:20Z</time>
      </trkpt>
      <trkpt lat="49.13322" lon="7.33714">
        <ele>317.9</ele>
        <time>2022-07-13T19:34:26Z</time>
      </trkpt>
      <trkpt lat="49.13326" lon="7.33727">
        <ele>317.7</ele>
        <time>2022-07-13T19:34:32Z</time>
      </trkpt>
      <trkpt lat="49.13332" lon="7.33739">
        <ele>317.5</ele>
        <time>2022-07-13T19:34:40Z</time>
      </trkpt>
      <trkpt lat="49.13336" lon="7.33752">
        <ele>317.3</ele>
        <time>2022-07-13T19:34:48Z</time>
      </trkpt>
      <trkpt lat="49.13339" lon="7.33766">
        <ele>317.1</ele>
        <time>2022-07-13T19:34:56Z</time>
      </trkpt>
      <trkpt lat="49.13343" lon="7.33779">
        <ele>316.9</ele>
        <time>2022-07-13T19:35:07Z</time>
      </trkpt>
      <trkpt lat="49.13339" lon="7.33793">
        <ele>316.8</ele>
        <time>2022-07-13T19:35:13Z</time>
      </trkpt>
      <trkpt lat="49.13333" lon="7.33806">
        <ele>316.7</ele>
        <time>2022-07-13T19:35:18Z</time>
      </trkpt>
      <trkpt lat="49.13327" lon="7.33818">
        <ele>316.5</ele>
        <time>2022-07-13T19:35:22Z</time>
      </trkpt>
      <trkpt lat="49.13322" lon="7.33833">
        <ele>316.5</ele>
        <time>2022-07-13T19:35:27Z</time>
      </trkpt>
      <trkpt lat="49.1332" lon="7.33847">
        <ele>316.4</ele>
        <time>2022-07-13T19:35:34Z</time>
      </trkpt>
      <trkpt lat="49.13314" lon="7.33859">
        <ele>316.4</ele>
        <time>2022-07-13T19:35:38Z</time>
      </trkpt>
      <trkpt lat="49.13309" lon="7.33873">
        <ele>316.4</ele>
        <time>2022-07-13T19:35:44Z</time>
      </trkpt>
      <trkpt lat="49.13305" lon="7.33885">
        <ele>316.4</ele>
        <time>2022-07-13T19:35:51Z</time>
      </trkpt>
      <trkpt lat="49.13297" lon="7.339">
        <ele>316.5</ele>
        <time>2022-07-13T19:35:59Z</time>
      </trkpt>
      <trkpt lat="49.13288" lon="7.33913">
        <ele>316.6</ele>
        <time>2022-07-13T19:36:02Z</time>
      </trkpt>
      <trkpt lat="49.13282" lon="7.33926">
        <ele>316.8</ele>
        <time>2022-07-13T19:36:06Z</time>
      </trkpt>
      <trkpt lat="49.13275" lon="7.33938">
        <ele>316.9</ele>
        <time>2022-07-13T19:36:11Z</time>
      </trkpt>
      <trkpt lat="49.1327" lon="7.3395">
        <ele>317.1</ele>
        <time>2022-07-13T19:36:16Z</time>
      </trkpt>
      <trkpt lat="49.13273" lon="7.33964">
        <ele>317.4</ele>
        <time>2022-07-13T19:36:24Z</time>
      </trkpt>
      <trkpt lat="49.13274" lon="7.33979">
        <ele>317.7</ele>
        <time>2022-07-13T19:36:29Z</time>
      </trkpt>
      <trkpt lat="49.13276" lon="7.33993">
        <ele>318</ele>
        <time>2022-07-13T19:36:35Z</time>
      </trkpt>
      <trkpt lat="49.13279" lon="7.34006">
        <ele>318.3</ele>
        <time>2022-07-13T19:36:45Z</time>
      </trkpt>
      <trkpt lat="49.13282" lon="7.3402">
        <ele>318.5</ele>
        <time>2022-07-13T19:36:55Z</time>
      </trkpt>
      <trkpt lat="49.13279" lon="7.34034">
        <ele>318.8</ele>
        <time>2022-07-13T19:37:01Z</time>
      </trkpt>
      <trkpt lat="49.13278" lon="7.34048">
        <ele>319.1</ele>
        <time>2022-07-13T19:37:09Z</time>
      </trkpt>
      <trkpt lat="49.13276" lon="7.34064">
        <ele>319.3</ele>
        <time>2022-07-13T19:37:17Z</time>
      </trkpt>
      <trkpt lat="49.13275" lon="7.34078">
        <ele>319.6</ele>
        <time>2022-07-13T19:37:23Z</time>
      </trkpt>
      <trkpt lat="49.13271" lon="7.3409">
        <ele>319.9</ele>
        <time>2022-07-13T19:37:29Z</time>
      </trkpt>
      <trkpt lat="49.13264" lon="7.34103">
        <ele>320.3</ele>
        <time>2022-07-13T19:37:35Z</time>
      </trkpt>
      <trkpt lat="49.13256" lon="7.34109">
        <ele>320.5</ele>
        <time>2022-07-13T19:37:42Z</time>
      </trkpt>
      <trkpt lat="49.13259" lon="7.34123">
        <ele>320.8</ele>
        <time>2022-07-13T19:37:54Z</time>
      </trkpt>
      <trkpt lat="49.13254" lon="7.34137">
        <ele>321</ele>
        <time>2022-07-13T19:38:03Z</time>
      </trkpt>
      <trkpt lat="49.13248" lon="7.3415">
        <ele>321.3</ele>
        <time>2022-07-13T19:38:11Z</time>
      </trkpt>
      <trkpt lat="49.13245" lon="7.34163">
        <ele>321.5</ele>
        <time>2022-07-13T19:38:15Z</time>
      </trkpt>
      <trkpt lat="49.13239" lon="7.34173">
        <ele>321.7</ele>
        <time>2022-07-13T19:38:24Z</time>
      </trkpt>
      <trkpt lat="49.13236" lon="7.34186">
        <ele>322</ele>
        <time>2022-07-13T19:38:33Z</time>
      </trkpt>
      <trkpt lat="49.13233" lon="7.342">
        <ele>322.2</ele>
        <time>2022-07-13T19:38:42Z</time>
      </trkpt>
      <trkpt lat="49.13231" lon="7.34216">
        <ele>322.5</ele>
        <time>2022-07-13T19:38:50Z</time>
      </trkpt>
      <trkpt lat="49.13229" lon="7.34229">
        <ele>322.7</ele>
        <time>2022-07-13T19:38:56Z</time>
      </trkpt>
      <trkpt lat="49.13226" lon="7.34244">
        <ele>323</ele>
        <time>2022-07-13T19:39:02Z</time>
      </trkpt>
      <trkpt lat="49.13226" lon="7.34259">
        <ele>323.2</ele>
        <time>2022-07-13T19:39:10Z</time>
      </trkpt>
      <trkpt lat="49.13226" lon="7.34275">
        <ele>323.4</ele>
        <time>2022-07-13T19:39:17Z</time>
      </trkpt>
      <trkpt lat="49.13225" lon="7.3429">
        <ele>323.6</ele>
        <time>2022-07-13T19:39:23Z</time>
      </trkpt>
      <trkpt lat="49.13223" lon="7.34303">
        <ele>323.8</ele>
        <time>2022-07-13T19:39:30Z</time>
      </trkpt>
      <trkpt lat="49.13221" lon="7.34317">
        <ele>323.9</ele>
        <time>2022-07-13T19:39:35Z</time>
      </trkpt>
      <trkpt lat="49.13221" lon="7.34333">
        <ele>324</ele>
        <time>2022-07-13T19:39:42Z</time>
      </trkpt>
      <trkpt lat="49.13222" lon="7.34348">
        <ele>324.1</ele>
        <time>2022-07-13T19:39:50Z</time>
      </trkpt>
      <trkpt lat="49.13222" lon="7.34363">
        <ele>324.3</ele>
        <time>2022-07-13T19:39:55Z</time>
      </trkpt>
      <trkpt lat="49.13223" lon="7.34379">
        <ele>324.4</ele>
        <time>2022-07-13T19:40:01Z</time>
      </trkpt>
      <trkpt lat="49.13222" lon="7.34393">
        <ele>324.5</ele>
        <time>2022-07-13T19:40:12Z</time>
      </trkpt>
      <trkpt lat="49.13222" lon="7.34397">
        <ele>324.5</ele>
        <time>2022-07-13T19:40:15Z</time>
      </trkpt>
      <trkpt lat="49.13222" lon="7.34398">
        <ele>324.5</ele>
        <time>2022-07-13T19:40:16Z</time>
      </trkpt>
      <trkpt lat="49.13217" lon="7.3441">
        <ele>324.5</ele>
        <time>2022-07-13T19:40:27Z</time>
      </trkpt>
      <trkpt lat="49.13211" lon="7.34422">
        <ele>324.5</ele>
        <time>2022-07-13T19:40:36Z</time>
      </trkpt>
      <trkpt lat="49.13207" lon="7.34436">
        <ele>324.5</ele>
        <time>2022-07-13T19:40:43Z</time>
      </trkpt>
      <trkpt lat="49.13202" lon="7.3445">
        <ele>324.5</ele>
        <time>2022-07-13T19:40:49Z</time>
      </trkpt>
      <trkpt lat="49.13197" lon="7.34463">
        <ele>324.5</ele>
        <time>2022-07-13T19:40:54Z</time>
      </trkpt>
      <trkpt lat="49.13197" lon="7.34478">
        <ele>324.3</ele>
        <time>2022-07-13T19:41:01Z</time>
      </trkpt>
      <trkpt lat="49.13207" lon="7.34478">
        <ele>324.3</ele>
        <time>2022-07-13T19:41:10Z</time>
      </trkpt>
      <trkpt lat="49.13216" lon="7.34483">
        <ele>324.3</ele>
        <time>2022-07-13T19:41:18Z</time>
      </trkpt>
      <trkpt lat="49.13225" lon="7.34487">
        <ele>324.3</ele>
        <time>2022-07-13T19:41:25Z</time>
      </trkpt>
      <trkpt lat="49.13236" lon="7.34489">
        <ele>324.2</ele>
        <time>2022-07-13T19:41:33Z</time>
      </trkpt>
      <trkpt lat="49.13245" lon="7.34488">
        <ele>324.2</ele>
        <time>2022-07-13T19:41:38Z</time>
      </trkpt>
      <trkpt lat="49.13254" lon="7.34496">
        <ele>324.2</ele>
        <time>2022-07-13T19:41:46Z</time>
      </trkpt>
      <trkpt lat="49.13262" lon="7.34505">
        <ele>324.1</ele>
        <time>2022-07-13T19:41:54Z</time>
      </trkpt>
      <trkpt lat="49.13269" lon="7.34515">
        <ele>324</ele>
        <time>2022-07-13T19:42:02Z</time>
      </trkpt>
      <trkpt lat="49.13277" lon="7.34519">
        <ele>324</ele>
        <time>2022-07-13T19:42:09Z</time>
      </trkpt>
      <trkpt lat="49.13285" lon="7.34528">
        <ele>323.9</ele>
        <time>2022-07-13T19:42:17Z</time>
      </trkpt>
      <trkpt lat="49.13292" lon="7.34537">
        <ele>323.8</ele>
        <time>2022-07-13T19:42:22Z</time>
      </trkpt>
      <trkpt lat="49.13299" lon="7.34544">
        <ele>323.7</ele>
        <time>2022-07-13T19:42:31Z</time>
      </trkpt>
      <trkpt lat="49.13309" lon="7.34546">
        <ele>323.6</ele>
        <time>2022-07-13T19:42:40Z</time>
      </trkpt>
      <trkpt lat="49.13317" lon="7.34554">
        <ele>323.4</ele>
        <time>2022-07-13T19:42:48Z</time>
      </trkpt>
      <trkpt lat="49.13325" lon="7.34559">
        <ele>323.3</ele>
        <time>2022-07-13T19:42:57Z</time>
      </trkpt>
      <trkpt lat="49.13334" lon="7.34557">
        <ele>323.1</ele>
        <time>2022-07-13T19:43:04Z</time>
      </trkpt>
      <trkpt lat="49.13343" lon="7.34561">
        <ele>323</ele>
        <time>2022-07-13T19:43:10Z</time>
      </trkpt>
      <trkpt lat="49.13351" lon="7.34571">
        <ele>322.9</ele>
        <time>2022-07-13T19:43:18Z</time>
      </trkpt>
      <trkpt lat="49.13355" lon="7.34586">
        <ele>322.7</ele>
        <time>2022-07-13T19:43:24Z</time>
      </trkpt>
      <trkpt lat="49.13354" lon="7.346">
        <ele>322.7</ele>
        <time>2022-07-13T19:43:29Z</time>
      </trkpt>
      <trkpt lat="49.13351" lon="7.34614">
        <ele>322.6</ele>
        <time>2022-07-13T19:43:37Z</time>
      </trkpt>
      <trkpt lat="49.13345" lon="7.34626">
        <ele>322.5</ele>
        <time>2022-07-13T19:43:43Z</time>
      </trkpt>
      <trkpt lat="49.13342" lon="7.3464">
        <ele>322.5</ele>
        <time>2022-07-13T19:43:50Z</time>
      </trkpt>
      <trkpt lat="49.13336" lon="7.34651">
        <ele>322.5</ele>
        <time>2022-07-13T19:43:56Z</time>
      </trkpt>
      <trkpt lat="49.1333" lon="7.34662">
        <ele>322.4</ele>
        <time>2022-07-13T19:44:02Z</time>
      </trkpt>
      <trkpt lat="49.13326" lon="7.34675">
        <ele>322.3</ele>
        <time>2022-07-13T19:44:08Z</time>
      </trkpt>
      <trkpt lat="49.13318" lon="7.34686">
        <ele>322.1</ele>
        <time>2022-07-13T19:44:14Z</time>
      </trkpt>
      <trkpt lat="49.13311" lon="7.34695">
        <ele>322</ele>
        <time>2022-07-13T19:44:24Z</time>
      </trkpt>
      <trkpt lat="49.1331" lon="7.3471">
        <ele>321.8</ele>
        <time>2022-07-13T19:44:32Z</time>
      </trkpt>
      <trkpt lat="49.13309" lon="7.34723">
        <ele>321.6</ele>
        <time>2022-07-13T19:44:38Z</time>
      </trkpt>
      <trkpt lat="49.13304" lon="7.34735">
        <ele>321.4</ele>
        <time>2022-07-13T19:44:52Z</time>
      </trkpt>
      <trkpt lat="49.133" lon="7.34749">
        <ele>321.1</ele>
        <time>2022-07-13T19:45:01Z</time>
      </trkpt>
      <trkpt lat="49.13299" lon="7.34763">
        <ele>320.9</ele>
        <time>2022-07-13T19:45:10Z</time>
      </trkpt>
      <trkpt lat="49.13297" lon="7.34777">
        <ele>320.7</ele>
        <time>2022-07-13T19:45:18Z</time>
      </trkpt>
      <trkpt lat="49.13292" lon="7.3479">
        <ele>320.4</ele>
        <time>2022-07-13T19:45:25Z</time>
      </trkpt>
      <trkpt lat="49.13289" lon="7.34804">
        <ele>320.2</ele>
        <time>2022-07-13T19:45:32Z</time>
      </trkpt>
      <trkpt lat="49.13286" lon="7.34817">
        <ele>319.9</ele>
        <time>2022-07-13T19:45:39Z</time>
      </trkpt>
      <trkpt lat="49.13282" lon="7.34831">
        <ele>319.5</ele>
        <time>2022-07-13T19:45:45Z</time>
      </trkpt>
      <trkpt lat="49.13278" lon="7.34845">
        <ele>319.2</ele>
        <time>2022-07-13T19:45:53Z</time>
      </trkpt>
      <trkpt lat="49.13276" lon="7.3486">
        <ele>319</ele>
        <time>2022-07-13T19:46:00Z</time>
      </trkpt>
      <trkpt lat="49.1327" lon="7.34873">
        <ele>318.7</ele>
        <time>2022-07-13T19:46:07Z</time>
      </trkpt>
      <trkpt lat="49.1326" lon="7.3488">
        <ele>318.5</ele>
        <time>2022-07-13T19:46:18Z</time>
      </trkpt>
      <trkpt lat="49.13257" lon="7.34894">
        <ele>318.2</ele>
        <time>2022-07-13T19:46:27Z</time>
      </trkpt>
      <trkpt lat="49.13251" lon="7.34907">
        <ele>318</ele>
        <time>2022-07-13T19:46:35Z</time>
      </trkpt>
      <trkpt lat="49.13247" lon="7.3492">
        <ele>317.9</ele>
        <time>2022-07-13T19:46:43Z</time>
      </trkpt>
      <trkpt lat="49.13245" lon="7.34935">
        <ele>317.8</ele>
        <time>2022-07-13T19:46:50Z</time>
      </trkpt>
      <trkpt lat="49.13241" lon="7.34948">
        <ele>317.7</ele>
        <time>2022-07-13T19:46:57Z</time>
      </trkpt>
      <trkpt lat="49.1324" lon="7.34962">
        <ele>317.7</ele>
        <time>2022-07-13T19:47:04Z</time>
      </trkpt>
      <trkpt lat="49.13237" lon="7.34977">
        <ele>317.7</ele>
        <time>2022-07-13T19:47:12Z</time>
      </trkpt>
      <trkpt lat="49.13232" lon="7.3499">
        <ele>317.9</ele>
        <time>2022-07-13T19:47:18Z</time>
      </trkpt>
      <trkpt lat="49.13228" lon="7.35003">
        <ele>318</ele>
        <time>2022-07-13T19:47:28Z</time>
      </trkpt>
      <trkpt lat="49.13225" lon="7.35016">
        <ele>318.3</ele>
        <time>2022-07-13T19:47:40Z</time>
      </trkpt>
      <trkpt lat="49.13224" lon="7.35031">
        <ele>318.5</ele>
        <time>2022-07-13T19:47:47Z</time>
      </trkpt>
      <trkpt lat="49.1322" lon="7.35044">
        <ele>318.7</ele>
        <time>2022-07-13T19:47:55Z</time>
      </trkpt>
      <trkpt lat="49.13217" lon="7.35057">
        <ele>319</ele>
        <time>2022-07-13T19:48:02Z</time>
      </trkpt>
      <trkpt lat="49.13216" lon="7.35071">
        <ele>319.2</ele>
        <time>2022-07-13T19:48:09Z</time>
      </trkpt>
      <trkpt lat="49.13217" lon="7.35085">
        <ele>319.3</ele>
        <time>2022-07-13T19:48:15Z</time>
      </trkpt>
      <trkpt lat="49.13213" lon="7.35098">
        <ele>319.4</ele>
        <time>2022-07-13T19:48:23Z</time>
      </trkpt>
      <trkpt lat="49.13208" lon="7.3511">
        <ele>319.4</ele>
        <time>2022-07-13T19:48:32Z</time>
      </trkpt>
      <trkpt lat="49.13204" lon="7.35124">
        <ele>319.5</ele>
        <time>2022-07-13T19:48:39Z</time>
      </trkpt>
      <trkpt lat="49.13201" lon="7.35138">
        <ele>319.5</ele>
        <time>2022-07-13T19:48:51Z</time>
      </trkpt>
      <trkpt lat="49.13198" lon="7.35152">
        <ele>319.4</ele>
        <time>2022-07-13T19:48:57Z</time>
      </trkpt>
      <trkpt lat="49.13198" lon="7.35167">
        <ele>319.2</ele>
        <time>2022-07-13T19:49:04Z</time>
      </trkpt>
      <trkpt lat="49.13199" lon="7.35182">
        <ele>318.9</ele>
        <time>2022-07-13T19:49:12Z</time>
      </trkpt>
      <trkpt lat="49.13199" lon="7.35198">
        <ele>318.7</ele>
        <time>2022-07-13T19:49:18Z</time>
      </trkpt>
      <trkpt lat="49.132" lon="7.35212">
        <ele>318.4</ele>
        <time>2022-07-13T19:49:23Z</time>
      </trkpt>
      <trkpt lat="49.13199" lon="7.35228">
        <ele>318.1</ele>
        <time>2022-07-13T19:49:30Z</time>
      </trkpt>
      <trkpt lat="49.13203" lon="7.35241">
        <ele>317.8</ele>
        <time>2022-07-13T19:49:37Z</time>
      </trkpt>
      <trkpt lat="49.13206" lon="7.35254">
        <ele>317.6</ele>
        <time>2022-07-13T19:49:46Z</time>
      </trkpt>
      <trkpt lat="49.13211" lon="7.35267">
        <ele>317.3</ele>
        <time>2022-07-13T19:49:56Z</time>
      </trkpt>
      <trkpt lat="49.13212" lon="7.35282">
        <ele>317</ele>
        <time>2022-07-13T19:50:04Z</time>
      </trkpt>
      <trkpt lat="49.13212" lon="7.35296">
        <ele>316.7</ele>
        <time>2022-07-13T19:50:10Z</time>
      </trkpt>
      <trkpt lat="49.13212" lon="7.35311">
        <ele>316.3</ele>
        <time>2022-07-13T19:50:18Z</time>
      </trkpt>
      <trkpt lat="49.13213" lon="7.35325">
        <ele>315.8</ele>
        <time>2022-07-13T19:50:25Z</time>
      </trkpt>
      <trkpt lat="49.13214" lon="7.35341">
        <ele>315</ele>
        <time>2022-07-13T19:50:36Z</time>
      </trkpt>
      <trkpt lat="49.13217" lon="7.35356">
        <ele>314.2</ele>
        <time>2022-07-13T19:50:46Z</time>
      </trkpt>
      <trkpt lat="49.13221" lon="7.35369">
        <ele>313.4</ele>
        <time>2022-07-13T19:50:57Z</time>
      </trkpt>
      <trkpt lat="49.1322" lon="7.35385">
        <ele>312.6</ele>
        <time>2022-07-13T19:51:10Z</time>
      </trkpt>
      <trkpt lat="49.13221" lon="7.35399">
        <ele>311.9</ele>
        <time>2022-07-13T19:51:16Z</time>
      </trkpt>
      <trkpt lat="49.13219" lon="7.35415">
        <ele>311.2</ele>
        <time>2022-07-13T19:51:22Z</time>
      </trkpt>
      <trkpt lat="49.13215" lon="7.35429">
        <ele>310.5</ele>
        <time>2022-07-13T19:51:29Z</time>
      </trkpt>
      <trkpt lat="49.13214" lon="7.35444">
        <ele>309.8</ele>
        <time>2022-07-13T19:51:38Z</time>
      </trkpt>
      <trkpt lat="49.13215" lon="7.3546">
        <ele>309.1</ele>
        <time>2022-07-13T19:51:46Z</time>
      </trkpt>
      <trkpt lat="49.13216" lon="7.35474">
        <ele>308.5</ele>
        <time>2022-07-13T19:51:53Z</time>
      </trkpt>
      <trkpt lat="49.13217" lon="7.3549">
        <ele>307.8</ele>
        <time>2022-07-13T19:52:02Z</time>
      </trkpt>
      <trkpt lat="49.13216" lon="7.35504">
        <ele>307</ele>
        <time>2022-07-13T19:52:12Z</time>
      </trkpt>
      <trkpt lat="49.1322" lon="7.35518">
        <ele>306.2</ele>
        <time>2022-07-13T19:52:21Z</time>
      </trkpt>
      <trkpt lat="49.13219" lon="7.35534">
        <ele>305.3</ele>
        <time>2022-07-13T19:52:29Z</time>
      </trkpt>
      <trkpt lat="49.13217" lon="7.35548">
        <ele>304.4</ele>
        <time>2022-07-13T19:52:35Z</time>
      </trkpt>
      <trkpt lat="49.13217" lon="7.35563">
        <ele>303.4</ele>
        <time>2022-07-13T19:52:43Z</time>
      </trkpt>
      <trkpt lat="49.13212" lon="7.35575">
        <ele>302.6</ele>
        <time>2022-07-13T19:52:51Z</time>
      </trkpt>
      <trkpt lat="49.1321" lon="7.35589">
        <ele>301.6</ele>
        <time>2022-07-13T19:52:59Z</time>
      </trkpt>
      <trkpt lat="49.1321" lon="7.35604">
        <ele>300.7</ele>
        <time>2022-07-13T19:53:09Z</time>
      </trkpt>
      <trkpt lat="49.13209" lon="7.35618">
        <ele>299.9</ele>
        <time>2022-07-13T19:53:16Z</time>
      </trkpt>
      <trkpt lat="49.13212" lon="7.35632">
        <ele>298.9</ele>
        <time>2022-07-13T19:53:25Z</time>
      </trkpt>
      <trkpt lat="49.1322" lon="7.35642">
        <ele>298</ele>
        <time>2022-07-13T19:53:32Z</time>
      </trkpt>
      <trkpt lat="49.13229" lon="7.35648">
        <ele>297</ele>
        <time>2022-07-13T19:53:39Z</time>
      </trkpt>
      <trkpt lat="49.13238" lon="7.35651">
        <ele>296.2</ele>
        <time>2022-07-13T19:53:46Z</time>
      </trkpt>
      <trkpt lat="49.13248" lon="7.35655">
        <ele>295.3</ele>
        <time>2022-07-13T19:53:53Z</time>
      </trkpt>
      <trkpt lat="49.13254" lon="7.35668">
        <ele>294.4</ele>
        <time>2022-07-13T19:53:58Z</time>
      </trkpt>
      <trkpt lat="49.1326" lon="7.35678">
        <ele>293.6</ele>
        <time>2022-07-13T19:54:03Z</time>
      </trkpt>
      <trkpt lat="49.13268" lon="7.35686">
        <ele>292.9</ele>
        <time>2022-07-13T19:54:09Z</time>
      </trkpt>
      <trkpt lat="49.13277" lon="7.35689">
        <ele>292.2</ele>
        <time>2022-07-13T19:54:18Z</time>
      </trkpt>
      <trkpt lat="49.13285" lon="7.35696">
        <ele>291.6</ele>
        <time>2022-07-13T19:54:26Z</time>
      </trkpt>
      <trkpt lat="49.13293" lon="7.35704">
        <ele>291.1</ele>
        <time>2022-07-13T19:54:33Z</time>
      </trkpt>
      <trkpt lat="49.13301" lon="7.35714">
        <ele>290.5</ele>
        <time>2022-07-13T19:54:40Z</time>
      </trkpt>
      <trkpt lat="49.13308" lon="7.35725">
        <ele>289.8</ele>
        <time>2022-07-13T19:54:46Z</time>
      </trkpt>
      <trkpt lat="49.13316" lon="7.35734">
        <ele>289.3</ele>
        <time>2022-07-13T19:54:58Z</time>
      </trkpt>
      <trkpt lat="49.13324" lon="7.35742">
        <ele>288.7</ele>
        <time>2022-07-13T19:55:04Z</time>
      </trkpt>
      <trkpt lat="49.13333" lon="7.35749">
        <ele>288.1</ele>
        <time>2022-07-13T19:55:12Z</time>
      </trkpt>
      <trkpt lat="49.13342" lon="7.35758">
        <ele>287.4</ele>
        <time>2022-07-13T19:55:19Z</time>
      </trkpt>
      <trkpt lat="49.1335" lon="7.35763">
        <ele>286.8</ele>
        <time>2022-07-13T19:55:26Z</time>
      </trkpt>
      <trkpt lat="49.13358" lon="7.35769">
        <ele>286.2</ele>
        <time>2022-07-13T19:55:34Z</time>
      </trkpt>
      <trkpt lat="49.13368" lon="7.35775">
        <ele>285.5</ele>
        <time>2022-07-13T19:55:42Z</time>
      </trkpt>
      <trkpt lat="49.13377" lon="7.35776">
        <ele>284.8</ele>
        <time>2022-07-13T19:55:49Z</time>
      </trkpt>
      <trkpt lat="49.13385" lon="7.3579">
        <ele>283.9</ele>
        <time>2022-07-13T19:55:57Z</time>
      </trkpt>
      <trkpt lat="49.13392" lon="7.35803">
        <ele>283</ele>
        <time>2022-07-13T19:56:02Z</time>
      </trkpt>
      <trkpt lat="49.13392" lon="7.35818">
        <ele>282.2</ele>
        <time>2022-07-13T19:56:24Z</time>
      </trkpt>
      <trkpt lat="49.13393" lon="7.35833">
        <ele>281.4</ele>
        <time>2022-07-13T19:56:37Z</time>
      </trkpt>
      <trkpt lat="49.13394" lon="7.35847">
        <ele>280.7</ele>
        <time>2022-07-13T19:56:41Z</time>
      </trkpt>
      <trkpt lat="49.13396" lon="7.35861">
        <ele>279.9</ele>
        <time>2022-07-13T19:56:46Z</time>
      </trkpt>
      <trkpt lat="49.13397" lon="7.35876">
        <ele>279.2</ele>
        <time>2022-07-13T19:56:50Z</time>
      </trkpt>
      <trkpt lat="49.13407" lon="7.35879">
        <ele>278.5</ele>
        <time>2022-07-13T19:57:14Z</time>
      </trkpt>
      <trkpt lat="49.13407" lon="7.35879">
        <ele>278.5</ele>
        <time>2022-07-13T19:57:15Z</time>
      </trkpt>
      <trkpt lat="49.13407" lon="7.3588">
        <ele>278.5</ele>
        <time>2022-07-13T19:57:16Z</time>
      </trkpt>
      <trkpt lat="49.13415" lon="7.35886">
        <ele>277.9</ele>
        <time>2022-07-13T19:57:23Z</time>
      </trkpt>
      <trkpt lat="49.13411" lon="7.35899">
        <ele>277.4</ele>
        <time>2022-07-13T19:57:31Z</time>
      </trkpt>
      <trkpt lat="49.1341" lon="7.35913">
        <ele>277.1</ele>
        <time>2022-07-13T19:57:39Z</time>
      </trkpt>
      <trkpt lat="49.13405" lon="7.35925">
        <ele>276.9</ele>
        <time>2022-07-13T19:57:44Z</time>
      </trkpt>
      <trkpt lat="49.13399" lon="7.35936">
        <ele>276.8</ele>
        <time>2022-07-13T19:57:52Z</time>
      </trkpt>
      <trkpt lat="49.13395" lon="7.3595">
        <ele>276.8</ele>
        <time>2022-07-13T19:58:01Z</time>
      </trkpt>
      <trkpt lat="49.1339" lon="7.35964">
        <ele>276.9</ele>
        <time>2022-07-13T19:58:10Z</time>
      </trkpt>
      <trkpt lat="49.13384" lon="7.35975">
        <ele>276.9</ele>
        <time>2022-07-13T19:58:18Z</time>
      </trkpt>
      <trkpt lat="49.13386" lon="7.35989">
        <ele>276.7</ele>
        <time>2022-07-13T19:58:24Z</time>
      </trkpt>
      <trkpt lat="49.13389" lon="7.36003">
        <ele>276.4</ele>
        <time>2022-07-13T19:58:33Z</time>
      </trkpt>
      <trkpt lat="49.13386" lon="7.36018">
        <ele>275.8</ele>
        <time>2022-07-13T19:58:39Z</time>
      </trkpt>
      <trkpt lat="49.13384" lon="7.36033">
        <ele>275.3</ele>
        <time>2022-07-13T19:58:44Z</time>
      </trkpt>
      <trkpt lat="49.13384" lon="7.36048">
        <ele>274.7</ele>
        <time>2022-07-13T19:58:49Z</time>
      </trkpt>
      <trkpt lat="49.13381" lon="7.36061">
        <ele>274.2</ele>
        <time>2022-07-13T19:59:01Z</time>
      </trkpt>
      <trkpt lat="49.13379" lon="7.36075">
        <ele>273.6</ele>
        <time>2022-07-13T19:59:07Z</time>
      </trkpt>
      <trkpt lat="49.1338" lon="7.3609">
        <ele>273.1</ele>
        <time>2022-07-13T19:59:14Z</time>
      </trkpt>
      <trkpt lat="49.13375" lon="7.36103">
        <ele>272.5</ele>
        <time>2022-07-13T19:59:26Z</time>
      </trkpt>
      <trkpt lat="49.13376" lon="7.36118">
        <ele>271.6</ele>
        <time>2022-07-13T19:59:40Z</time>
      </trkpt>
      <trkpt lat="49.13383" lon="7.36127">
        <ele>270.2</ele>
        <time>2022-07-13T19:59:48Z</time>
      </trkpt>
      <trkpt lat="49.1339" lon="7.36138">
        <ele>268</ele>
        <time>2022-07-13T19:59:56Z</time>
      </trkpt>
      <trkpt lat="49.13393" lon="7.36151">
        <ele>265.7</ele>
        <time>2022-07-13T20:00:03Z</time>
      </trkpt>
      <trkpt lat="49.13397" lon="7.3617">
        <ele>262.4</ele>
        <time>2022-07-13T20:00:09Z</time>
      </trkpt>
      <trkpt lat="49.134" lon="7.36183">
        <ele>260.3</ele>
        <time>2022-07-13T20:00:12Z</time>
      </trkpt>
      <trkpt lat="49.13404" lon="7.36198">
        <ele>257.9</ele>
        <time>2022-07-13T20:00:16Z</time>
      </trkpt>
      <trkpt lat="49.13409" lon="7.3621">
        <ele>255.8</ele>
        <time>2022-07-13T20:00:20Z</time>
      </trkpt>
      <trkpt lat="49.13417" lon="7.36218">
        <ele>253.9</ele>
        <time>2022-07-13T20:00:25Z</time>
      </trkpt>
      <trkpt lat="49.13422" lon="7.36231">
        <ele>252</ele>
        <time>2022-07-13T20:00:33Z</time>
      </trkpt>
      <trkpt lat="49.1343" lon="7.36235">
        <ele>250.8</ele>
        <time>2022-07-13T20:00:44Z</time>
      </trkpt>
      <trkpt lat="49.1343" lon="7.36235">
        <ele>250.8</ele>
        <time>2022-07-13T20:00:45Z</time>
      </trkpt>
      <trkpt lat="49.13437" lon="7.36244">
        <ele>249.8</ele>
        <time>2022-07-13T20:00:56Z</time>
      </trkpt>
      <trkpt lat="49.13442" lon="7.36259">
        <ele>249.1</ele>
        <time>2022-07-13T20:01:02Z</time>
      </trkpt>
      <trkpt lat="49.13446" lon="7.36272">
        <ele>248.5</ele>
        <time>2022-07-13T20:01:09Z</time>
      </trkpt>
      <trkpt lat="49.13447" lon="7.36287">
        <ele>248</ele>
        <time>2022-07-13T20:01:27Z</time>
      </trkpt>
      <trkpt lat="49.13446" lon="7.36302">
        <ele>247.8</ele>
        <time>2022-07-13T20:01:33Z</time>
      </trkpt>
      <trkpt lat="49.13445" lon="7.36319">
        <ele>247.8</ele>
        <time>2022-07-13T20:01:39Z</time>
      </trkpt>
      <trkpt lat="49.13444" lon="7.36333">
        <ele>248</ele>
        <time>2022-07-13T20:01:45Z</time>
      </trkpt>
      <trkpt lat="49.13436" lon="7.36339">
        <ele>247.9</ele>
        <time>2022-07-13T20:01:52Z</time>
      </trkpt>
      <trkpt lat="49.13426" lon="7.36343">
        <ele>248</ele>
        <time>2022-07-13T20:02:00Z</time>
      </trkpt>
      <trkpt lat="49.13417" lon="7.36344">
        <ele>248.2</ele>
        <time>2022-07-13T20:02:07Z</time>
      </trkpt>
      <trkpt lat="49.13412" lon="7.36357">
        <ele>248.2</ele>
        <time>2022-07-13T20:02:15Z</time>
      </trkpt>
      <trkpt lat="49.13407" lon="7.36371">
        <ele>248.1</ele>
        <time>2022-07-13T20:02:23Z</time>
      </trkpt>
      <trkpt lat="49.13405" lon="7.36384">
        <ele>248</ele>
        <time>2022-07-13T20:02:31Z</time>
      </trkpt>
      <trkpt lat="49.13399" lon="7.36396">
        <ele>247.7</ele>
        <time>2022-07-13T20:02:42Z</time>
      </trkpt>
      <trkpt lat="49.13398" lon="7.36411">
        <ele>246.7</ele>
        <time>2022-07-13T20:02:50Z</time>
      </trkpt>
      <trkpt lat="49.13397" lon="7.36426">
        <ele>246.3</ele>
        <time>2022-07-13T20:02:58Z</time>
      </trkpt>
      <trkpt lat="49.13398" lon="7.36441">
        <ele>247.5</ele>
        <time>2022-07-13T20:03:15Z</time>
      </trkpt>
      <trkpt lat="49.13402" lon="7.36453">
        <ele>248.9</ele>
        <time>2022-07-13T20:03:24Z</time>
      </trkpt>
      <trkpt lat="49.13406" lon="7.36464">
        <ele>249.5</ele>
        <time>2022-07-13T20:03:33Z</time>
      </trkpt>
      <trkpt lat="49.13406" lon="7.36464">
        <ele>249.6</ele>
        <time>2022-07-13T20:03:35Z</time>
      </trkpt>
      <trkpt lat="49.13405" lon="7.36463">
        <ele>249.6</ele>
        <time>2022-07-13T20:03:38Z</time>
      </trkpt>
      <trkpt lat="49.13405" lon="7.36464">
        <ele>249.6</ele>
        <time>2022-07-13T20:03:39Z</time>
      </trkpt>
      <trkpt lat="49.13398" lon="7.36474">
        <ele>250.8</ele>
        <time>2022-07-13T20:03:55Z</time>
      </trkpt>
      <trkpt lat="49.13399" lon="7.36475">
        <ele>250.8</ele>
        <time>2022-07-13T20:04:18Z</time>
      </trkpt>
      <trkpt lat="49.13399" lon="7.36475">
        <ele>250.8</ele>
        <time>2022-07-13T20:04:19Z</time>
      </trkpt>
      <trkpt lat="49.13404" lon="7.36479">
        <ele>250.9</ele>
        <time>2022-07-13T20:04:46Z</time>
      </trkpt>
      <trkpt lat="49.13404" lon="7.36479">
        <ele>250.9</ele>
        <time>2022-07-13T20:04:47Z</time>
      </trkpt>
      <trkpt lat="49.13406" lon="7.36479">
        <ele>250.9</ele>
        <time>2022-07-13T20:04:55Z</time>
      </trkpt>
      <trkpt lat="49.13406" lon="7.3648">
        <ele>250.9</ele>
        <time>2022-07-13T20:04:56Z</time>
      </trkpt>
      <trkpt lat="49.13406" lon="7.36482">
        <ele>250.9</ele>
        <time>2022-07-13T20:05:03Z</time>
      </trkpt>
      <trkpt lat="49.13405" lon="7.36481">
        <ele>250.9</ele>
        <time>2022-07-13T20:05:07Z</time>
      </trkpt>
      <trkpt lat="49.13404" lon="7.36481">
        <ele>250.9</ele>
        <time>2022-07-13T20:05:10Z</time>
      </trkpt>
      <trkpt lat="49.13404" lon="7.36481">
        <ele>250.9</ele>
        <time>2022-07-13T20:05:11Z</time>
      </trkpt>
      <trkpt lat="49.13404" lon="7.36482">
        <ele>250.9</ele>
        <time>2022-07-13T20:05:13Z</time>
      </trkpt>
      <trkpt lat="49.13404" lon="7.36482">
        <ele>250.9</ele>
        <time>2022-07-13T20:05:14Z</time>
      </trkpt>
      <trkpt lat="49.13412" lon="7.36489">
        <ele>250.9</ele>
        <time>2022-07-13T20:05:34Z</time>
      </trkpt>
      <trkpt lat="49.13422" lon="7.36492">
        <ele>251</ele>
        <time>2022-07-13T20:05:41Z</time>
      </trkpt>
      <trkpt lat="49.1343" lon="7.365">
        <ele>251</ele>
        <time>2022-07-13T20:05:48Z</time>
      </trkpt>
      <trkpt lat="49.13439" lon="7.36501">
        <ele>251.1</ele>
        <time>2022-07-13T20:05:56Z</time>
      </trkpt>
      <trkpt lat="49.13449" lon="7.36507">
        <ele>251</ele>
        <time>2022-07-13T20:06:02Z</time>
      </trkpt>
      <trkpt lat="49.13458" lon="7.36513">
        <ele>250.9</ele>
        <time>2022-07-13T20:06:09Z</time>
      </trkpt>
      <trkpt lat="49.13466" lon="7.36523">
        <ele>250.8</ele>
        <time>2022-07-13T20:06:18Z</time>
      </trkpt>
      <trkpt lat="49.13473" lon="7.36533">
        <ele>250.7</ele>
        <time>2022-07-13T20:06:25Z</time>
      </trkpt>
      <trkpt lat="49.13481" lon="7.36546">
        <ele>250.4</ele>
        <time>2022-07-13T20:06:30Z</time>
      </trkpt>
      <trkpt lat="49.13487" lon="7.36557">
        <ele>250.2</ele>
        <time>2022-07-13T20:06:35Z</time>
      </trkpt>
      <trkpt lat="49.13496" lon="7.36564">
        <ele>250</ele>
        <time>2022-07-13T20:06:43Z</time>
      </trkpt>
      <trkpt lat="49.13504" lon="7.36574">
        <ele>249.8</ele>
        <time>2022-07-13T20:06:50Z</time>
      </trkpt>
      <trkpt lat="49.13513" lon="7.3658">
        <ele>249.7</ele>
        <time>2022-07-13T20:06:57Z</time>
      </trkpt>
      <trkpt lat="49.13523" lon="7.36586">
        <ele>249.7</ele>
        <time>2022-07-13T20:07:04Z</time>
      </trkpt>
      <trkpt lat="49.13532" lon="7.36592">
        <ele>249.6</ele>
        <time>2022-07-13T20:07:10Z</time>
      </trkpt>
      <trkpt lat="49.13537" lon="7.36592">
        <ele>249.6</ele>
        <time>2022-07-13T20:07:27Z</time>
      </trkpt>
      <trkpt lat="49.13537" lon="7.36591">
        <ele>249.5</ele>
        <time>2022-07-13T20:07:28Z</time>
      </trkpt>
      <trkpt lat="49.13537" lon="7.36591">
        <ele>249.5</ele>
        <time>2022-07-13T20:07:29Z</time>
      </trkpt>
      <trkpt lat="49.13537" lon="7.36591">
        <ele>249.5</ele>
        <time>2022-07-13T20:07:35Z</time>
      </trkpt>
      <trkpt lat="49.13537" lon="7.36591">
        <ele>249.5</ele>
        <time>2022-07-13T20:07:36Z</time>
      </trkpt>
      <trkpt lat="49.13536" lon="7.36591">
        <ele>249.5</ele>
        <time>2022-07-13T20:07:38Z</time>
      </trkpt>
      <trkpt lat="49.13544" lon="7.36585">
        <ele>249.5</ele>
        <time>2022-07-13T20:07:47Z</time>
      </trkpt>
      <trkpt lat="49.13554" lon="7.36586">
        <ele>249.4</ele>
        <time>2022-07-13T20:07:55Z</time>
      </trkpt>
      <trkpt lat="49.13555" lon="7.36585">
        <ele>249.1</ele>
        <time>2022-07-13T20:07:58Z</time>
      </trkpt>
      <trkpt lat="49.13556" lon="7.36584">
        <ele>249.1</ele>
        <time>2022-07-13T20:07:59Z</time>
      </trkpt>
      <trkpt lat="49.13561" lon="7.36572">
        <ele>248.7</ele>
        <time>2022-07-13T20:08:08Z</time>
      </trkpt>
      <trkpt lat="49.13562" lon="7.36558">
        <ele>248.3</ele>
        <time>2022-07-13T20:08:15Z</time>
      </trkpt>
      <trkpt lat="49.13563" lon="7.36542">
        <ele>248</ele>
        <time>2022-07-13T20:08:22Z</time>
      </trkpt>
      <trkpt lat="49.13565" lon="7.36527">
        <ele>247.6</ele>
        <time>2022-07-13T20:08:29Z</time>
      </trkpt>
      <trkpt lat="49.13559" lon="7.36514">
        <ele>247.4</ele>
        <time>2022-07-13T20:08:36Z</time>
      </trkpt>
      <trkpt lat="49.13554" lon="7.36502">
        <ele>247.3</ele>
        <time>2022-07-13T20:08:43Z</time>
      </trkpt>
      <trkpt lat="49.13548" lon="7.3649">
        <ele>247.1</ele>
        <time>2022-07-13T20:08:50Z</time>
      </trkpt>
      <trkpt lat="49.13546" lon="7.36476">
        <ele>247</ele>
        <time>2022-07-13T20:08:58Z</time>
      </trkpt>
      <trkpt lat="49.13542" lon="7.36463">
        <ele>247</ele>
        <time>2022-07-13T20:09:05Z</time>
      </trkpt>
      <trkpt lat="49.13537" lon="7.3645">
        <ele>246.9</ele>
        <time>2022-07-13T20:09:12Z</time>
      </trkpt>
      <trkpt lat="49.13533" lon="7.36436">
        <ele>247</ele>
        <time>2022-07-13T20:09:18Z</time>
      </trkpt>
      <trkpt lat="49.13534" lon="7.3642">
        <ele>247.2</ele>
        <time>2022-07-13T20:09:24Z</time>
      </trkpt>
      <trkpt lat="49.13535" lon="7.36405">
        <ele>247.3</ele>
        <time>2022-07-13T20:09:32Z</time>
      </trkpt>
      <trkpt lat="49.13534" lon="7.36391">
        <ele>247.5</ele>
        <time>2022-07-13T20:09:39Z</time>
      </trkpt>
      <trkpt lat="49.13531" lon="7.36377">
        <ele>247.7</ele>
        <time>2022-07-13T20:09:45Z</time>
      </trkpt>
      <trkpt lat="49.1353" lon="7.36362">
        <ele>248</ele>
        <time>2022-07-13T20:09:52Z</time>
      </trkpt>
      <trkpt lat="49.13529" lon="7.36347">
        <ele>248.4</ele>
        <time>2022-07-13T20:09:59Z</time>
      </trkpt>
      <trkpt lat="49.13523" lon="7.36335">
        <ele>249</ele>
        <time>2022-07-13T20:10:11Z</time>
      </trkpt>
      <trkpt lat="49.13522" lon="7.36319">
        <ele>249.7</ele>
        <time>2022-07-13T20:10:18Z</time>
      </trkpt>
      <trkpt lat="49.13531" lon="7.3631">
        <ele>250.7</ele>
        <time>2022-07-13T20:10:23Z</time>
      </trkpt>
      <trkpt lat="49.13539" lon="7.36305">
        <ele>251.9</ele>
        <time>2022-07-13T20:10:28Z</time>
      </trkpt>
      <trkpt lat="49.13548" lon="7.36299">
        <ele>253.5</ele>
        <time>2022-07-13T20:10:34Z</time>
      </trkpt>
      <trkpt lat="49.13557" lon="7.36289">
        <ele>255.3</ele>
        <time>2022-07-13T20:10:42Z</time>
      </trkpt>
      <trkpt lat="49.13564" lon="7.3628">
        <ele>257.1</ele>
        <time>2022-07-13T20:10:50Z</time>
      </trkpt>
      <trkpt lat="49.13573" lon="7.36273">
        <ele>258.9</ele>
        <time>2022-07-13T20:10:57Z</time>
      </trkpt>
      <trkpt lat="49.13581" lon="7.36264">
        <ele>260.1</ele>
        <time>2022-07-13T20:11:03Z</time>
      </trkpt>
      <trkpt lat="49.1359" lon="7.36256">
        <ele>261.2</ele>
        <time>2022-07-13T20:11:10Z</time>
      </trkpt>
      <trkpt lat="49.13598" lon="7.36248">
        <ele>262.2</ele>
        <time>2022-07-13T20:11:17Z</time>
      </trkpt>
      <trkpt lat="49.13606" lon="7.3624">
        <ele>263.1</ele>
        <time>2022-07-13T20:11:23Z</time>
      </trkpt>
      <trkpt lat="49.13614" lon="7.36233">
        <ele>264.1</ele>
        <time>2022-07-13T20:11:30Z</time>
      </trkpt>
      <trkpt lat="49.13623" lon="7.36227">
        <ele>265.4</ele>
        <time>2022-07-13T20:11:38Z</time>
      </trkpt>
      <trkpt lat="49.13631" lon="7.36221">
        <ele>266.6</ele>
        <time>2022-07-13T20:11:44Z</time>
      </trkpt>
      <trkpt lat="49.13639" lon="7.36214">
        <ele>268</ele>
        <time>2022-07-13T20:11:50Z</time>
      </trkpt>
      <trkpt lat="49.13647" lon="7.36207">
        <ele>269.2</ele>
        <time>2022-07-13T20:11:57Z</time>
      </trkpt>
      <trkpt lat="49.13656" lon="7.36199">
        <ele>270.2</ele>
        <time>2022-07-13T20:12:04Z</time>
      </trkpt>
      <trkpt lat="49.13664" lon="7.36191">
        <ele>271</ele>
        <time>2022-07-13T20:12:10Z</time>
      </trkpt>
      <trkpt lat="49.13672" lon="7.36182">
        <ele>271.9</ele>
        <time>2022-07-13T20:12:17Z</time>
      </trkpt>
      <trkpt lat="49.1368" lon="7.36174">
        <ele>273</ele>
        <time>2022-07-13T20:12:24Z</time>
      </trkpt>
      <trkpt lat="49.13688" lon="7.36168">
        <ele>274</ele>
        <time>2022-07-13T20:12:31Z</time>
      </trkpt>
      <trkpt lat="49.13697" lon="7.36162">
        <ele>275</ele>
        <time>2022-07-13T20:12:38Z</time>
      </trkpt>
      <trkpt lat="49.13705" lon="7.36155">
        <ele>276</ele>
        <time>2022-07-13T20:12:45Z</time>
      </trkpt>
      <trkpt lat="49.13714" lon="7.36148">
        <ele>277.2</ele>
        <time>2022-07-13T20:12:52Z</time>
      </trkpt>
      <trkpt lat="49.13722" lon="7.36141">
        <ele>278.3</ele>
        <time>2022-07-13T20:12:59Z</time>
      </trkpt>
      <trkpt lat="49.1373" lon="7.36134">
        <ele>279.4</ele>
        <time>2022-07-13T20:13:08Z</time>
      </trkpt>
      <trkpt lat="49.13738" lon="7.36126">
        <ele>280.3</ele>
        <time>2022-07-13T20:13:14Z</time>
      </trkpt>
      <trkpt lat="49.13746" lon="7.36118">
        <ele>281.3</ele>
        <time>2022-07-13T20:13:20Z</time>
      </trkpt>
      <trkpt lat="49.13754" lon="7.36109">
        <ele>282.4</ele>
        <time>2022-07-13T20:13:27Z</time>
      </trkpt>
      <trkpt lat="49.13761" lon="7.36101">
        <ele>283.4</ele>
        <time>2022-07-13T20:13:33Z</time>
      </trkpt>
      <trkpt lat="49.13768" lon="7.36091">
        <ele>284.4</ele>
        <time>2022-07-13T20:13:39Z</time>
      </trkpt>
      <trkpt lat="49.13775" lon="7.36079">
        <ele>285.4</ele>
        <time>2022-07-13T20:13:46Z</time>
      </trkpt>
      <trkpt lat="49.13783" lon="7.36072">
        <ele>286.1</ele>
        <time>2022-07-13T20:13:53Z</time>
      </trkpt>
      <trkpt lat="49.1379" lon="7.36061">
        <ele>286.8</ele>
        <time>2022-07-13T20:14:00Z</time>
      </trkpt>
      <trkpt lat="49.13796" lon="7.36051">
        <ele>287.4</ele>
        <time>2022-07-13T20:14:07Z</time>
      </trkpt>
      <trkpt lat="49.13802" lon="7.3604">
        <ele>288</ele>
        <time>2022-07-13T20:14:14Z</time>
      </trkpt>
      <trkpt lat="49.13808" lon="7.36028">
        <ele>288.6</ele>
        <time>2022-07-13T20:14:20Z</time>
      </trkpt>
      <trkpt lat="49.13813" lon="7.36015">
        <ele>289.1</ele>
        <time>2022-07-13T20:14:27Z</time>
      </trkpt>
      <trkpt lat="49.13818" lon="7.36003">
        <ele>289.6</ele>
        <time>2022-07-13T20:14:33Z</time>
      </trkpt>
      <trkpt lat="49.13819" lon="7.36">
        <ele>289.7</ele>
        <time>2022-07-13T20:14:37Z</time>
      </trkpt>
      <trkpt lat="49.13819" lon="7.35999">
        <ele>289.7</ele>
        <time>2022-07-13T20:14:42Z</time>
      </trkpt>
      <trkpt lat="49.13823" lon="7.35985">
        <ele>290.2</ele>
        <time>2022-07-13T20:14:52Z</time>
      </trkpt>
      <trkpt lat="49.13825" lon="7.35978">
        <ele>290.5</ele>
        <time>2022-07-13T20:15:00Z</time>
      </trkpt>
      <trkpt lat="49.13825" lon="7.35977">
        <ele>290.5</ele>
        <time>2022-07-13T20:15:29Z</time>
      </trkpt>
      <trkpt lat="49.13828" lon="7.35964">
        <ele>290.9</ele>
        <time>2022-07-13T20:15:36Z</time>
      </trkpt>
      <trkpt lat="49.13832" lon="7.3595">
        <ele>291.5</ele>
        <time>2022-07-13T20:15:42Z</time>
      </trkpt>
      <trkpt lat="49.13837" lon="7.35937">
        <ele>292</ele>
        <time>2022-07-13T20:15:49Z</time>
      </trkpt>
      <trkpt lat="49.13841" lon="7.35923">
        <ele>292.5</ele>
        <time>2022-07-13T20:15:55Z</time>
      </trkpt>
      <trkpt lat="49.13847" lon="7.35911">
        <ele>293.1</ele>
        <time>2022-07-13T20:16:01Z</time>
      </trkpt>
      <trkpt lat="49.13856" lon="7.35904">
        <ele>293.6</ele>
        <time>2022-07-13T20:16:08Z</time>
      </trkpt>
      <trkpt lat="49.13865" lon="7.35905">
        <ele>294</ele>
        <time>2022-07-13T20:16:14Z</time>
      </trkpt>
      <trkpt lat="49.13875" lon="7.35903">
        <ele>294.4</ele>
        <time>2022-07-13T20:16:20Z</time>
      </trkpt>
      <trkpt lat="49.13885" lon="7.359">
        <ele>294.9</ele>
        <time>2022-07-13T20:16:28Z</time>
      </trkpt>
      <trkpt lat="49.13895" lon="7.35899">
        <ele>295.3</ele>
        <time>2022-07-13T20:16:34Z</time>
      </trkpt>
      <trkpt lat="49.13904" lon="7.35898">
        <ele>295.6</ele>
        <time>2022-07-13T20:16:40Z</time>
      </trkpt>
      <trkpt lat="49.13914" lon="7.35896">
        <ele>296</ele>
        <time>2022-07-13T20:16:46Z</time>
      </trkpt>
      <trkpt lat="49.13923" lon="7.35895">
        <ele>296.3</ele>
        <time>2022-07-13T20:16:53Z</time>
      </trkpt>
      <trkpt lat="49.13933" lon="7.35895">
        <ele>296.5</ele>
        <time>2022-07-13T20:16:59Z</time>
      </trkpt>
      <trkpt lat="49.13942" lon="7.35894">
        <ele>296.5</ele>
        <time>2022-07-13T20:17:06Z</time>
      </trkpt>
      <trkpt lat="49.13953" lon="7.35894">
        <ele>296.5</ele>
        <time>2022-07-13T20:17:12Z</time>
      </trkpt>
      <trkpt lat="49.13962" lon="7.35891">
        <ele>296.5</ele>
        <time>2022-07-13T20:17:19Z</time>
      </trkpt>
      <trkpt lat="49.13972" lon="7.35888">
        <ele>296.6</ele>
        <time>2022-07-13T20:17:26Z</time>
      </trkpt>
      <trkpt lat="49.13979" lon="7.35876">
        <ele>296.7</ele>
        <time>2022-07-13T20:17:33Z</time>
      </trkpt>
      <trkpt lat="49.13984" lon="7.35862">
        <ele>296.9</ele>
        <time>2022-07-13T20:17:39Z</time>
      </trkpt>
      <trkpt lat="49.13987" lon="7.35847">
        <ele>297.2</ele>
        <time>2022-07-13T20:17:47Z</time>
      </trkpt>
      <trkpt lat="49.13988" lon="7.35833">
        <ele>297.5</ele>
        <time>2022-07-13T20:17:54Z</time>
      </trkpt>
      <trkpt lat="49.13988" lon="7.35818">
        <ele>297.9</ele>
        <time>2022-07-13T20:18:04Z</time>
      </trkpt>
      <trkpt lat="49.13987" lon="7.35802">
        <ele>298.3</ele>
        <time>2022-07-13T20:18:11Z</time>
      </trkpt>
      <trkpt lat="49.13988" lon="7.35787">
        <ele>298.6</ele>
        <time>2022-07-13T20:18:18Z</time>
      </trkpt>
      <trkpt lat="49.13988" lon="7.35772">
        <ele>299</ele>
        <time>2022-07-13T20:18:25Z</time>
      </trkpt>
      <trkpt lat="49.13989" lon="7.35757">
        <ele>299.4</ele>
        <time>2022-07-13T20:18:32Z</time>
      </trkpt>
      <trkpt lat="49.1399" lon="7.35741">
        <ele>299.8</ele>
        <time>2022-07-13T20:18:39Z</time>
      </trkpt>
      <trkpt lat="49.13991" lon="7.35727">
        <ele>300.2</ele>
        <time>2022-07-13T20:18:45Z</time>
      </trkpt>
      <trkpt lat="49.13992" lon="7.35712">
        <ele>300.7</ele>
        <time>2022-07-13T20:18:51Z</time>
      </trkpt>
      <trkpt lat="49.13994" lon="7.35698">
        <ele>301.2</ele>
        <time>2022-07-13T20:18:57Z</time>
      </trkpt>
      <trkpt lat="49.13995" lon="7.35684">
        <ele>301.8</ele>
        <time>2022-07-13T20:19:03Z</time>
      </trkpt>
      <trkpt lat="49.13996" lon="7.3567">
        <ele>302.3</ele>
        <time>2022-07-13T20:19:09Z</time>
      </trkpt>
      <trkpt lat="49.13997" lon="7.35654">
        <ele>303</ele>
        <time>2022-07-13T20:19:16Z</time>
      </trkpt>
      <trkpt lat="49.13998" lon="7.35639">
        <ele>303.5</ele>
        <time>2022-07-13T20:19:23Z</time>
      </trkpt>
      <trkpt lat="49.13996" lon="7.35624">
        <ele>304.1</ele>
        <time>2022-07-13T20:19:30Z</time>
      </trkpt>
      <trkpt lat="49.13997" lon="7.35609">
        <ele>304.7</ele>
        <time>2022-07-13T20:19:37Z</time>
      </trkpt>
      <trkpt lat="49.13997" lon="7.35593">
        <ele>305.1</ele>
        <time>2022-07-13T20:19:44Z</time>
      </trkpt>
      <trkpt lat="49.14" lon="7.35578">
        <ele>305.5</ele>
        <time>2022-07-13T20:19:51Z</time>
      </trkpt>
      <trkpt lat="49.14007" lon="7.35567">
        <ele>305.9</ele>
        <time>2022-07-13T20:19:58Z</time>
      </trkpt>
      <trkpt lat="49.14014" lon="7.35555">
        <ele>306.2</ele>
        <time>2022-07-13T20:20:05Z</time>
      </trkpt>
      <trkpt lat="49.14023" lon="7.35549">
        <ele>306.4</ele>
        <time>2022-07-13T20:20:12Z</time>
      </trkpt>
      <trkpt lat="49.1403" lon="7.35538">
        <ele>306.6</ele>
        <time>2022-07-13T20:20:18Z</time>
      </trkpt>
      <trkpt lat="49.14036" lon="7.35527">
        <ele>306.8</ele>
        <time>2022-07-13T20:20:24Z</time>
      </trkpt>
      <trkpt lat="49.14041" lon="7.35515">
        <ele>307</ele>
        <time>2022-07-13T20:20:30Z</time>
      </trkpt>
      <trkpt lat="49.14045" lon="7.35502">
        <ele>307.2</ele>
        <time>2022-07-13T20:20:37Z</time>
      </trkpt>
      <trkpt lat="49.14049" lon="7.35487">
        <ele>307.5</ele>
        <time>2022-07-13T20:20:44Z</time>
      </trkpt>
      <trkpt lat="49.14051" lon="7.35474">
        <ele>307.9</ele>
        <time>2022-07-13T20:20:50Z</time>
      </trkpt>
      <trkpt lat="49.14056" lon="7.3546">
        <ele>308.3</ele>
        <time>2022-07-13T20:20:57Z</time>
      </trkpt>
      <trkpt lat="49.14058" lon="7.35446">
        <ele>308.7</ele>
        <time>2022-07-13T20:21:04Z</time>
      </trkpt>
      <trkpt lat="49.1406" lon="7.35431">
        <ele>309.1</ele>
        <time>2022-07-13T20:21:11Z</time>
      </trkpt>
      <trkpt lat="49.14064" lon="7.35415">
        <ele>309.6</ele>
        <time>2022-07-13T20:21:18Z</time>
      </trkpt>
      <trkpt lat="49.14066" lon="7.35401">
        <ele>310.2</ele>
        <time>2022-07-13T20:21:25Z</time>
      </trkpt>
      <trkpt lat="49.14067" lon="7.35385">
        <ele>310.8</ele>
        <time>2022-07-13T20:21:31Z</time>
      </trkpt>
      <trkpt lat="49.14069" lon="7.3537">
        <ele>311.3</ele>
        <time>2022-07-13T20:21:38Z</time>
      </trkpt>
      <trkpt lat="49.14068" lon="7.35353">
        <ele>311.8</ele>
        <time>2022-07-13T20:21:46Z</time>
      </trkpt>
      <trkpt lat="49.1407" lon="7.35339">
        <ele>312.2</ele>
        <time>2022-07-13T20:21:52Z</time>
      </trkpt>
      <trkpt lat="49.14071" lon="7.35323">
        <ele>312.7</ele>
        <time>2022-07-13T20:21:59Z</time>
      </trkpt>
      <trkpt lat="49.14071" lon="7.35308">
        <ele>313.2</ele>
        <time>2022-07-13T20:22:06Z</time>
      </trkpt>
      <trkpt lat="49.14075" lon="7.35294">
        <ele>313.7</ele>
        <time>2022-07-13T20:22:13Z</time>
      </trkpt>
      <trkpt lat="49.14076" lon="7.3528">
        <ele>314.2</ele>
        <time>2022-07-13T20:22:20Z</time>
      </trkpt>
      <trkpt lat="49.14076" lon="7.35266">
        <ele>314.7</ele>
        <time>2022-07-13T20:22:27Z</time>
      </trkpt>
      <trkpt lat="49.14079" lon="7.35251">
        <ele>315.2</ele>
        <time>2022-07-13T20:22:34Z</time>
      </trkpt>
      <trkpt lat="49.14083" lon="7.35237">
        <ele>315.6</ele>
        <time>2022-07-13T20:22:40Z</time>
      </trkpt>
      <trkpt lat="49.14085" lon="7.35223">
        <ele>316.1</ele>
        <time>2022-07-13T20:22:47Z</time>
      </trkpt>
      <trkpt lat="49.14089" lon="7.35209">
        <ele>316.6</ele>
        <time>2022-07-13T20:22:53Z</time>
      </trkpt>
      <trkpt lat="49.14093" lon="7.35195">
        <ele>317.1</ele>
        <time>2022-07-13T20:23:00Z</time>
      </trkpt>
      <trkpt lat="49.14097" lon="7.35181">
        <ele>317.6</ele>
        <time>2022-07-13T20:23:08Z</time>
      </trkpt>
      <trkpt lat="49.14101" lon="7.35166">
        <ele>318.1</ele>
        <time>2022-07-13T20:23:15Z</time>
      </trkpt>
      <trkpt lat="49.14105" lon="7.35153">
        <ele>318.5</ele>
        <time>2022-07-13T20:23:21Z</time>
      </trkpt>
      <trkpt lat="49.14108" lon="7.3514">
        <ele>319</ele>
        <time>2022-07-13T20:23:27Z</time>
      </trkpt>
      <trkpt lat="49.14115" lon="7.35129">
        <ele>319.4</ele>
        <time>2022-07-13T20:23:33Z</time>
      </trkpt>
      <trkpt lat="49.14121" lon="7.35118">
        <ele>319.8</ele>
        <time>2022-07-13T20:23:40Z</time>
      </trkpt>
      <trkpt lat="49.14127" lon="7.35107">
        <ele>320.1</ele>
        <time>2022-07-13T20:23:46Z</time>
      </trkpt>
      <trkpt lat="49.14133" lon="7.35097">
        <ele>320.3</ele>
        <time>2022-07-13T20:23:52Z</time>
      </trkpt>
      <trkpt lat="49.1414" lon="7.35085">
        <ele>320.6</ele>
        <time>2022-07-13T20:23:59Z</time>
      </trkpt>
      <trkpt lat="49.14146" lon="7.35075">
        <ele>320.7</ele>
        <time>2022-07-13T20:24:06Z</time>
      </trkpt>
      <trkpt lat="49.14151" lon="7.35063">
        <ele>320.9</ele>
        <time>2022-07-13T20:24:12Z</time>
      </trkpt>
      <trkpt lat="49.14156" lon="7.3505">
        <ele>321.1</ele>
        <time>2022-07-13T20:24:19Z</time>
      </trkpt>
      <trkpt lat="49.1416" lon="7.35036">
        <ele>321.4</ele>
        <time>2022-07-13T20:24:26Z</time>
      </trkpt>
      <trkpt lat="49.14163" lon="7.35023">
        <ele>321.6</ele>
        <time>2022-07-13T20:24:32Z</time>
      </trkpt>
      <trkpt lat="49.14167" lon="7.35008">
        <ele>321.7</ele>
        <time>2022-07-13T20:24:39Z</time>
      </trkpt>
      <trkpt lat="49.1417" lon="7.34995">
        <ele>321.6</ele>
        <time>2022-07-13T20:24:46Z</time>
      </trkpt>
      <trkpt lat="49.14173" lon="7.34982">
        <ele>321.6</ele>
        <time>2022-07-13T20:24:53Z</time>
      </trkpt>
      <trkpt lat="49.14177" lon="7.34969">
        <ele>321.6</ele>
        <time>2022-07-13T20:25:00Z</time>
      </trkpt>
      <trkpt lat="49.14179" lon="7.34955">
        <ele>321.5</ele>
        <time>2022-07-13T20:25:07Z</time>
      </trkpt>
      <trkpt lat="49.14181" lon="7.3494">
        <ele>321.5</ele>
        <time>2022-07-13T20:25:14Z</time>
      </trkpt>
      <trkpt lat="49.14183" lon="7.34926">
        <ele>321.5</ele>
        <time>2022-07-13T20:25:21Z</time>
      </trkpt>
      <trkpt lat="49.14185" lon="7.34913">
        <ele>321.5</ele>
        <time>2022-07-13T20:25:27Z</time>
      </trkpt>
      <trkpt lat="49.14188" lon="7.34897">
        <ele>321.4</ele>
        <time>2022-07-13T20:25:34Z</time>
      </trkpt>
      <trkpt lat="49.14191" lon="7.34883">
        <ele>321.4</ele>
        <time>2022-07-13T20:25:41Z</time>
      </trkpt>
      <trkpt lat="49.14193" lon="7.34867">
        <ele>321.3</ele>
        <time>2022-07-13T20:25:49Z</time>
      </trkpt>
      <trkpt lat="49.14194" lon="7.34853">
        <ele>321.3</ele>
        <time>2022-07-13T20:25:56Z</time>
      </trkpt>
      <trkpt lat="49.14195" lon="7.34838">
        <ele>321.2</ele>
        <time>2022-07-13T20:26:03Z</time>
      </trkpt>
      <trkpt lat="49.14198" lon="7.34822">
        <ele>321.2</ele>
        <time>2022-07-13T20:26:10Z</time>
      </trkpt>
      <trkpt lat="49.14199" lon="7.34808">
        <ele>321.2</ele>
        <time>2022-07-13T20:26:16Z</time>
      </trkpt>
      <trkpt lat="49.14202" lon="7.34795">
        <ele>321.1</ele>
        <time>2022-07-13T20:26:22Z</time>
      </trkpt>
      <trkpt lat="49.14204" lon="7.34781">
        <ele>321</ele>
        <time>2022-07-13T20:26:29Z</time>
      </trkpt>
      <trkpt lat="49.14205" lon="7.34767">
        <ele>321</ele>
        <time>2022-07-13T20:26:35Z</time>
      </trkpt>
      <trkpt lat="49.14207" lon="7.34752">
        <ele>320.9</ele>
        <time>2022-07-13T20:26:42Z</time>
      </trkpt>
      <trkpt lat="49.14207" lon="7.34738">
        <ele>320.9</ele>
        <time>2022-07-13T20:26:49Z</time>
      </trkpt>
      <trkpt lat="49.14207" lon="7.34723">
        <ele>320.9</ele>
        <time>2022-07-13T20:26:56Z</time>
      </trkpt>
      <trkpt lat="49.14208" lon="7.34709">
        <ele>320.9</ele>
        <time>2022-07-13T20:27:03Z</time>
      </trkpt>
      <trkpt lat="49.14209" lon="7.34694">
        <ele>320.8</ele>
        <time>2022-07-13T20:27:11Z</time>
      </trkpt>
      <trkpt lat="49.14211" lon="7.3468">
        <ele>320.8</ele>
        <time>2022-07-13T20:27:19Z</time>
      </trkpt>
      <trkpt lat="49.14213" lon="7.34665">
        <ele>320.8</ele>
        <time>2022-07-13T20:27:30Z</time>
      </trkpt>
      <trkpt lat="49.14213" lon="7.34658">
        <ele>320.8</ele>
        <time>2022-07-13T20:27:37Z</time>
      </trkpt>
      <trkpt lat="49.14212" lon="7.34658">
        <ele>320.8</ele>
        <time>2022-07-13T20:27:38Z</time>
      </trkpt>
      <trkpt lat="49.14212" lon="7.34658">
        <ele>320.8</ele>
        <time>2022-07-13T20:27:39Z</time>
      </trkpt>
      <trkpt lat="49.14213" lon="7.34658">
        <ele>320.8</ele>
        <time>2022-07-13T20:27:41Z</time>
      </trkpt>
      <trkpt lat="49.14214" lon="7.34643">
        <ele>320.7</ele>
        <time>2022-07-13T20:27:50Z</time>
      </trkpt>
      <trkpt lat="49.14215" lon="7.3463">
        <ele>320.7</ele>
        <time>2022-07-13T20:27:57Z</time>
      </trkpt>
      <trkpt lat="49.14219" lon="7.34615">
        <ele>320.8</ele>
        <time>2022-07-13T20:28:05Z</time>
      </trkpt>
      <trkpt lat="49.14221" lon="7.34602">
        <ele>320.8</ele>
        <time>2022-07-13T20:28:11Z</time>
      </trkpt>
      <trkpt lat="49.14221" lon="7.34598">
        <ele>320.8</ele>
        <time>2022-07-13T20:28:15Z</time>
      </trkpt>
      <trkpt lat="49.14222" lon="7.34597">
        <ele>320.8</ele>
        <time>2022-07-13T20:28:25Z</time>
      </trkpt>
      <trkpt lat="49.1422" lon="7.34587">
        <ele>320.8</ele>
        <time>2022-07-13T20:28:34Z</time>
      </trkpt>
      <trkpt lat="49.1422" lon="7.34587">
        <ele>320.8</ele>
        <time>2022-07-13T20:28:35Z</time>
      </trkpt>
      <trkpt lat="49.14223" lon="7.34573">
        <ele>320.8</ele>
        <time>2022-07-13T20:28:41Z</time>
      </trkpt>
      <trkpt lat="49.14223" lon="7.34568">
        <ele>320.8</ele>
        <time>2022-07-13T20:28:51Z</time>
      </trkpt>
      <trkpt lat="49.14223" lon="7.34567">
        <ele>320.8</ele>
        <time>2022-07-13T20:28:56Z</time>
      </trkpt>
      <trkpt lat="49.14222" lon="7.34558">
        <ele>320.8</ele>
        <time>2022-07-13T20:29:05Z</time>
      </trkpt>
      <trkpt lat="49.14222" lon="7.34558">
        <ele>320.8</ele>
        <time>2022-07-13T20:29:14Z</time>
      </trkpt>
      <trkpt lat="49.14225" lon="7.34544">
        <ele>320.8</ele>
        <time>2022-07-13T20:29:22Z</time>
      </trkpt>
      <trkpt lat="49.14228" lon="7.34529">
        <ele>320.8</ele>
        <time>2022-07-13T20:29:30Z</time>
      </trkpt>
      <trkpt lat="49.14231" lon="7.34516">
        <ele>320.7</ele>
        <time>2022-07-13T20:29:36Z</time>
      </trkpt>
      <trkpt lat="49.14235" lon="7.34503">
        <ele>320.7</ele>
        <time>2022-07-13T20:29:42Z</time>
      </trkpt>
      <trkpt lat="49.14238" lon="7.34489">
        <ele>320.7</ele>
        <time>2022-07-13T20:29:49Z</time>
      </trkpt>
      <trkpt lat="49.14241" lon="7.34476">
        <ele>320.8</ele>
        <time>2022-07-13T20:29:56Z</time>
      </trkpt>
      <trkpt lat="49.14244" lon="7.34463">
        <ele>320.8</ele>
        <time>2022-07-13T20:30:03Z</time>
      </trkpt>
      <trkpt lat="49.14244" lon="7.34455">
        <ele>320.8</ele>
        <time>2022-07-13T20:30:10Z</time>
      </trkpt>
      <trkpt lat="49.14244" lon="7.34455">
        <ele>320.8</ele>
        <time>2022-07-13T20:30:13Z</time>
      </trkpt>
      <trkpt lat="49.14245" lon="7.34447">
        <ele>320.8</ele>
        <time>2022-07-13T20:30:21Z</time>
      </trkpt>
      <trkpt lat="49.14245" lon="7.34447">
        <ele>320.8</ele>
        <time>2022-07-13T20:30:22Z</time>
      </trkpt>
      <trkpt lat="49.14248" lon="7.34433">
        <ele>320.8</ele>
        <time>2022-07-13T20:30:29Z</time>
      </trkpt>
      <trkpt lat="49.1425" lon="7.34423">
        <ele>320.8</ele>
        <time>2022-07-13T20:30:38Z</time>
      </trkpt>
      <trkpt lat="49.1425" lon="7.34422">
        <ele>320.8</ele>
        <time>2022-07-13T20:30:41Z</time>
      </trkpt>
      <trkpt lat="49.14252" lon="7.34414">
        <ele>320.8</ele>
        <time>2022-07-13T20:30:48Z</time>
      </trkpt>
      <trkpt lat="49.14252" lon="7.34414">
        <ele>320.8</ele>
        <time>2022-07-13T20:31:04Z</time>
      </trkpt>
      <trkpt lat="49.14252" lon="7.34414">
        <ele>320.8</ele>
        <time>2022-07-13T20:31:05Z</time>
      </trkpt>
      <trkpt lat="49.14252" lon="7.34413">
        <ele>320.8</ele>
        <time>2022-07-13T20:31:09Z</time>
      </trkpt>
      <trkpt lat="49.14255" lon="7.34399">
        <ele>320.9</ele>
        <time>2022-07-13T20:31:16Z</time>
      </trkpt>
      <trkpt lat="49.14257" lon="7.34384">
        <ele>320.9</ele>
        <time>2022-07-13T20:31:23Z</time>
      </trkpt>
      <trkpt lat="49.1426" lon="7.34369">
        <ele>321</ele>
        <time>2022-07-13T20:31:31Z</time>
      </trkpt>
      <trkpt lat="49.14263" lon="7.34355">
        <ele>320.9</ele>
        <time>2022-07-13T20:31:40Z</time>
      </trkpt>
      <trkpt lat="49.14266" lon="7.34341">
        <ele>320.9</ele>
        <time>2022-07-13T20:31:48Z</time>
      </trkpt>
      <trkpt lat="49.14268" lon="7.34327">
        <ele>320.9</ele>
        <time>2022-07-13T20:31:54Z</time>
      </trkpt>
      <trkpt lat="49.14272" lon="7.34314">
        <ele>320.9</ele>
        <time>2022-07-13T20:32:00Z</time>
      </trkpt>
      <trkpt lat="49.14274" lon="7.343">
        <ele>320.9</ele>
        <time>2022-07-13T20:32:07Z</time>
      </trkpt>
      <trkpt lat="49.14274" lon="7.34284">
        <ele>321.1</ele>
        <time>2022-07-13T20:32:15Z</time>
      </trkpt>
      <trkpt lat="49.14272" lon="7.34273">
        <ele>321.1</ele>
        <time>2022-07-13T20:32:24Z</time>
      </trkpt>
      <trkpt lat="49.14271" lon="7.34272">
        <ele>321.1</ele>
        <time>2022-07-13T20:32:39Z</time>
      </trkpt>
      <trkpt lat="49.14271" lon="7.34272">
        <ele>321.1</ele>
        <time>2022-07-13T20:32:41Z</time>
      </trkpt>
      <trkpt lat="49.14271" lon="7.34273">
        <ele>321.2</ele>
        <time>2022-07-13T20:32:45Z</time>
      </trkpt>
      <trkpt lat="49.14271" lon="7.34273">
        <ele>321.2</ele>
        <time>2022-07-13T20:32:49Z</time>
      </trkpt>
      <trkpt lat="49.14271" lon="7.34273">
        <ele>321.2</ele>
        <time>2022-07-13T20:32:50Z</time>
      </trkpt>
      <trkpt lat="49.14275" lon="7.34274">
        <ele>321.2</ele>
        <time>2022-07-13T20:33:10Z</time>
      </trkpt>
      <trkpt lat="49.14274" lon="7.34273">
        <ele>321.2</ele>
        <time>2022-07-13T20:33:11Z</time>
      </trkpt>
      <trkpt lat="49.14273" lon="7.34265">
        <ele>321.3</ele>
        <time>2022-07-13T20:33:38Z</time>
      </trkpt>
      <trkpt lat="49.14272" lon="7.34265">
        <ele>321.3</ele>
        <time>2022-07-13T20:33:39Z</time>
      </trkpt>
      <trkpt lat="49.14272" lon="7.34265">
        <ele>321.3</ele>
        <time>2022-07-13T20:33:40Z</time>
      </trkpt>
      <trkpt lat="49.14273" lon="7.34265">
        <ele>321.3</ele>
        <time>2022-07-13T20:33:41Z</time>
      </trkpt>
      <trkpt lat="49.14274" lon="7.3425">
        <ele>321.3</ele>
        <time>2022-07-13T20:34:41Z</time>
      </trkpt>
      <trkpt lat="49.14271" lon="7.34235">
        <ele>321.3</ele>
        <time>2022-07-13T20:34:48Z</time>
      </trkpt>
      <trkpt lat="49.14272" lon="7.3422">
        <ele>321.2</ele>
        <time>2022-07-13T20:34:55Z</time>
      </trkpt>
      <trkpt lat="49.14274" lon="7.34205">
        <ele>321.2</ele>
        <time>2022-07-13T20:35:03Z</time>
      </trkpt>
      <trkpt lat="49.14275" lon="7.3419">
        <ele>321.1</ele>
        <time>2022-07-13T20:35:10Z</time>
      </trkpt>
      <trkpt lat="49.14277" lon="7.34176">
        <ele>321.1</ele>
        <time>2022-07-13T20:35:17Z</time>
      </trkpt>
      <trkpt lat="49.14278" lon="7.34161">
        <ele>321</ele>
        <time>2022-07-13T20:35:24Z</time>
      </trkpt>
      <trkpt lat="49.1428" lon="7.34146">
        <ele>320.9</ele>
        <time>2022-07-13T20:35:32Z</time>
      </trkpt>
      <trkpt lat="49.14283" lon="7.34131">
        <ele>320.9</ele>
        <time>2022-07-13T20:35:39Z</time>
      </trkpt>
      <trkpt lat="49.14287" lon="7.34117">
        <ele>320.8</ele>
        <time>2022-07-13T20:35:47Z</time>
      </trkpt>
      <trkpt lat="49.1429" lon="7.34104">
        <ele>320.8</ele>
        <time>2022-07-13T20:35:54Z</time>
      </trkpt>
      <trkpt lat="49.14293" lon="7.34091">
        <ele>320.8</ele>
        <time>2022-07-13T20:36:01Z</time>
      </trkpt>
      <trkpt lat="49.14296" lon="7.34077">
        <ele>320.7</ele>
        <time>2022-07-13T20:36:08Z</time>
      </trkpt>
      <trkpt lat="49.143" lon="7.34064">
        <ele>320.7</ele>
        <time>2022-07-13T20:36:15Z</time>
      </trkpt>
      <trkpt lat="49.14305" lon="7.34051">
        <ele>320.6</ele>
        <time>2022-07-13T20:36:22Z</time>
      </trkpt>
      <trkpt lat="49.1431" lon="7.34037">
        <ele>320.5</ele>
        <time>2022-07-13T20:36:29Z</time>
      </trkpt>
      <trkpt lat="49.14314" lon="7.34023">
        <ele>320.4</ele>
        <time>2022-07-13T20:36:36Z</time>
      </trkpt>
      <trkpt lat="49.14318" lon="7.3401">
        <ele>320.3</ele>
        <time>2022-07-13T20:36:43Z</time>
      </trkpt>
      <trkpt lat="49.14322" lon="7.33997">
        <ele>320.2</ele>
        <time>2022-07-13T20:36:50Z</time>
      </trkpt>
      <trkpt lat="49.14326" lon="7.33983">
        <ele>320.2</ele>
        <time>2022-07-13T20:36:58Z</time>
      </trkpt>
      <trkpt lat="49.14329" lon="7.33969">
        <ele>320.1</ele>
        <time>2022-07-13T20:37:05Z</time>
      </trkpt>
      <trkpt lat="49.14332" lon="7.33956">
        <ele>320</ele>
        <time>2022-07-13T20:37:11Z</time>
      </trkpt>
      <trkpt lat="49.14334" lon="7.33942">
        <ele>319.9</ele>
        <time>2022-07-13T20:37:18Z</time>
      </trkpt>
      <trkpt lat="49.14337" lon="7.33928">
        <ele>319.9</ele>
        <time>2022-07-13T20:37:25Z</time>
      </trkpt>
      <trkpt lat="49.14338" lon="7.33914">
        <ele>319.8</ele>
        <time>2022-07-13T20:37:34Z</time>
      </trkpt>
      <trkpt lat="49.1434" lon="7.339">
        <ele>319.7</ele>
        <time>2022-07-13T20:37:43Z</time>
      </trkpt>
      <trkpt lat="49.1434" lon="7.33898">
        <ele>319.7</ele>
        <time>2022-07-13T20:37:47Z</time>
      </trkpt>
      <trkpt lat="49.1434" lon="7.33898">
        <ele>319.7</ele>
        <time>2022-07-13T20:37:51Z</time>
      </trkpt>
      <trkpt lat="49.14341" lon="7.33895">
        <ele>319.7</ele>
        <time>2022-07-13T20:37:58Z</time>
      </trkpt>
      <trkpt lat="49.14341" lon="7.33894">
        <ele>319.7</ele>
        <time>2022-07-13T20:38:06Z</time>
      </trkpt>
      <trkpt lat="49.1434" lon="7.3388">
        <ele>319.6</ele>
        <time>2022-07-13T20:38:13Z</time>
      </trkpt>
      <trkpt lat="49.14339" lon="7.33866">
        <ele>319.6</ele>
        <time>2022-07-13T20:38:20Z</time>
      </trkpt>
      <trkpt lat="49.14337" lon="7.33852">
        <ele>319.5</ele>
        <time>2022-07-13T20:38:26Z</time>
      </trkpt>
      <trkpt lat="49.14333" lon="7.33838">
        <ele>319.4</ele>
        <time>2022-07-13T20:38:33Z</time>
      </trkpt>
      <trkpt lat="49.14329" lon="7.33824">
        <ele>319.3</ele>
        <time>2022-07-13T20:38:40Z</time>
      </trkpt>
      <trkpt lat="49.14325" lon="7.3381">
        <ele>319.2</ele>
        <time>2022-07-13T20:38:47Z</time>
      </trkpt>
      <trkpt lat="49.14322" lon="7.33797">
        <ele>319.2</ele>
        <time>2022-07-13T20:38:54Z</time>
      </trkpt>
      <trkpt lat="49.14319" lon="7.33784">
        <ele>319.1</ele>
        <time>2022-07-13T20:39:01Z</time>
      </trkpt>
      <trkpt lat="49.14315" lon="7.33772">
        <ele>319.1</ele>
        <time>2022-07-13T20:39:10Z</time>
      </trkpt>
      <trkpt lat="49.14315" lon="7.33773">
        <ele>319.1</ele>
        <time>2022-07-13T20:39:12Z</time>
      </trkpt>
      <trkpt lat="49.14315" lon="7.33773">
        <ele>319.1</ele>
        <time>2022-07-13T20:39:14Z</time>
      </trkpt>
      <trkpt lat="49.14315" lon="7.33773">
        <ele>319.1</ele>
        <time>2022-07-13T20:39:25Z</time>
      </trkpt>
      <trkpt lat="49.14313" lon="7.33759">
        <ele>319</ele>
        <time>2022-07-13T20:39:33Z</time>
      </trkpt>
      <trkpt lat="49.1431" lon="7.33745">
        <ele>319</ele>
        <time>2022-07-13T20:39:40Z</time>
      </trkpt>
      <trkpt lat="49.14307" lon="7.33732">
        <ele>319</ele>
        <time>2022-07-13T20:39:47Z</time>
      </trkpt>
      <trkpt lat="49.14303" lon="7.33718">
        <ele>318.9</ele>
        <time>2022-07-13T20:39:54Z</time>
      </trkpt>
      <trkpt lat="49.14299" lon="7.33706">
        <ele>318.8</ele>
        <time>2022-07-13T20:40:01Z</time>
      </trkpt>
      <trkpt lat="49.14297" lon="7.33695">
        <ele>318.8</ele>
        <time>2022-07-13T20:40:09Z</time>
      </trkpt>
      <trkpt lat="49.14297" lon="7.33694">
        <ele>318.8</ele>
        <time>2022-07-13T20:40:15Z</time>
      </trkpt>
      <trkpt lat="49.14292" lon="7.33681">
        <ele>318.8</ele>
        <time>2022-07-13T20:40:23Z</time>
      </trkpt>
      <trkpt lat="49.14288" lon="7.33666">
        <ele>318.7</ele>
        <time>2022-07-13T20:40:31Z</time>
      </trkpt>
      <trkpt lat="49.14285" lon="7.33653">
        <ele>318.7</ele>
        <time>2022-07-13T20:40:38Z</time>
      </trkpt>
      <trkpt lat="49.14282" lon="7.33638">
        <ele>318.7</ele>
        <time>2022-07-13T20:40:45Z</time>
      </trkpt>
      <trkpt lat="49.1428" lon="7.33622">
        <ele>318.7</ele>
        <time>2022-07-13T20:40:53Z</time>
      </trkpt>
      <trkpt lat="49.14278" lon="7.33607">
        <ele>318.7</ele>
        <time>2022-07-13T20:41:00Z</time>
      </trkpt>
      <trkpt lat="49.14275" lon="7.33593">
        <ele>318.6</ele>
        <time>2022-07-13T20:41:07Z</time>
      </trkpt>
      <trkpt lat="49.14273" lon="7.3358">
        <ele>318.6</ele>
        <time>2022-07-13T20:41:14Z</time>
      </trkpt>
      <trkpt lat="49.14271" lon="7.33566">
        <ele>318.5</ele>
        <time>2022-07-13T20:41:20Z</time>
      </trkpt>
      <trkpt lat="49.14267" lon="7.33551">
        <ele>318.5</ele>
        <time>2022-07-13T20:41:27Z</time>
      </trkpt>
      <trkpt lat="49.14263" lon="7.33537">
        <ele>318.4</ele>
        <time>2022-07-13T20:41:34Z</time>
      </trkpt>
      <trkpt lat="49.14259" lon="7.33524">
        <ele>318.4</ele>
        <time>2022-07-13T20:41:41Z</time>
      </trkpt>
      <trkpt lat="49.14254" lon="7.33512">
        <ele>318.4</ele>
        <time>2022-07-13T20:41:48Z</time>
      </trkpt>
      <trkpt lat="49.14249" lon="7.335">
        <ele>318.4</ele>
        <time>2022-07-13T20:41:55Z</time>
      </trkpt>
      <trkpt lat="49.14243" lon="7.33488">
        <ele>318.4</ele>
        <time>2022-07-13T20:42:02Z</time>
      </trkpt>
      <trkpt lat="49.14236" lon="7.33479">
        <ele>318.3</ele>
        <time>2022-07-13T20:42:09Z</time>
      </trkpt>
      <trkpt lat="49.14229" lon="7.33468">
        <ele>318.2</ele>
        <time>2022-07-13T20:42:16Z</time>
      </trkpt>
      <trkpt lat="49.14222" lon="7.33457">
        <ele>318.1</ele>
        <time>2022-07-13T20:42:22Z</time>
      </trkpt>
      <trkpt lat="49.14215" lon="7.33446">
        <ele>318</ele>
        <time>2022-07-13T20:42:29Z</time>
      </trkpt>
      <trkpt lat="49.14207" lon="7.33436">
        <ele>317.9</ele>
        <time>2022-07-13T20:42:35Z</time>
      </trkpt>
      <trkpt lat="49.14198" lon="7.33429">
        <ele>317.7</ele>
        <time>2022-07-13T20:42:41Z</time>
      </trkpt>
      <trkpt lat="49.14193" lon="7.33417">
        <ele>317.6</ele>
        <time>2022-07-13T20:42:47Z</time>
      </trkpt>
      <trkpt lat="49.14187" lon="7.33406">
        <ele>317.4</ele>
        <time>2022-07-13T20:42:56Z</time>
      </trkpt>
      <trkpt lat="49.14178" lon="7.33397">
        <ele>317.2</ele>
        <time>2022-07-13T20:43:04Z</time>
      </trkpt>
      <trkpt lat="49.14171" lon="7.33387">
        <ele>317.1</ele>
        <time>2022-07-13T20:43:12Z</time>
      </trkpt>
      <trkpt lat="49.14163" lon="7.33377">
        <ele>316.9</ele>
        <time>2022-07-13T20:43:19Z</time>
      </trkpt>
      <trkpt lat="49.14155" lon="7.33366">
        <ele>316.7</ele>
        <time>2022-07-13T20:43:27Z</time>
      </trkpt>
      <trkpt lat="49.14147" lon="7.33358">
        <ele>316.6</ele>
        <time>2022-07-13T20:43:34Z</time>
      </trkpt>
      <trkpt lat="49.14141" lon="7.33346">
        <ele>316.5</ele>
        <time>2022-07-13T20:43:41Z</time>
      </trkpt>
      <trkpt lat="49.14135" lon="7.33335">
        <ele>316.4</ele>
        <time>2022-07-13T20:43:48Z</time>
      </trkpt>
      <trkpt lat="49.14128" lon="7.33326">
        <ele>316.3</ele>
        <time>2022-07-13T20:43:55Z</time>
      </trkpt>
      <trkpt lat="49.14121" lon="7.33316">
        <ele>316.1</ele>
        <time>2022-07-13T20:44:01Z</time>
      </trkpt>
      <trkpt lat="49.14113" lon="7.33306">
        <ele>316</ele>
        <time>2022-07-13T20:44:07Z</time>
      </trkpt>
      <trkpt lat="49.14106" lon="7.33297">
        <ele>316</ele>
        <time>2022-07-13T20:44:14Z</time>
      </trkpt>
      <trkpt lat="49.141" lon="7.33285">
        <ele>316</ele>
        <time>2022-07-13T20:44:22Z</time>
      </trkpt>
      <trkpt lat="49.14092" lon="7.33276">
        <ele>316</ele>
        <time>2022-07-13T20:44:32Z</time>
      </trkpt>
      <trkpt lat="49.14086" lon="7.33264">
        <ele>315.9</ele>
        <time>2022-07-13T20:44:40Z</time>
      </trkpt>
      <trkpt lat="49.1408" lon="7.33251">
        <ele>315.8</ele>
        <time>2022-07-13T20:44:48Z</time>
      </trkpt>
      <trkpt lat="49.14073" lon="7.33241">
        <ele>315.8</ele>
        <time>2022-07-13T20:44:56Z</time>
      </trkpt>
      <trkpt lat="49.14068" lon="7.33228">
        <ele>315.7</ele>
        <time>2022-07-13T20:45:03Z</time>
      </trkpt>
      <trkpt lat="49.14062" lon="7.33215">
        <ele>315.6</ele>
        <time>2022-07-13T20:45:09Z</time>
      </trkpt>
      <trkpt lat="49.14055" lon="7.33206">
        <ele>315.5</ele>
        <time>2022-07-13T20:45:16Z</time>
      </trkpt>
      <trkpt lat="49.14047" lon="7.33197">
        <ele>315.4</ele>
        <time>2022-07-13T20:45:24Z</time>
      </trkpt>
      <trkpt lat="49.14042" lon="7.33183">
        <ele>315.3</ele>
        <time>2022-07-13T20:45:32Z</time>
      </trkpt>
      <trkpt lat="49.14037" lon="7.33171">
        <ele>315.1</ele>
        <time>2022-07-13T20:45:37Z</time>
      </trkpt>
      <trkpt lat="49.14032" lon="7.33158">
        <ele>315</ele>
        <time>2022-07-13T20:45:45Z</time>
      </trkpt>
      <trkpt lat="49.14027" lon="7.33147">
        <ele>314.8</ele>
        <time>2022-07-13T20:45:51Z</time>
      </trkpt>
      <trkpt lat="49.14021" lon="7.33134">
        <ele>314.6</ele>
        <time>2022-07-13T20:45:58Z</time>
      </trkpt>
      <trkpt lat="49.14017" lon="7.33121">
        <ele>314.5</ele>
        <time>2022-07-13T20:46:05Z</time>
      </trkpt>
      <trkpt lat="49.14011" lon="7.33108">
        <ele>314.4</ele>
        <time>2022-07-13T20:46:12Z</time>
      </trkpt>
      <trkpt lat="49.14006" lon="7.33096">
        <ele>314.3</ele>
        <time>2022-07-13T20:46:19Z</time>
      </trkpt>
      <trkpt lat="49.14" lon="7.33084">
        <ele>314.2</ele>
        <time>2022-07-13T20:46:25Z</time>
      </trkpt>
      <trkpt lat="49.13997" lon="7.33069">
        <ele>314.2</ele>
        <time>2022-07-13T20:46:33Z</time>
      </trkpt>
      <trkpt lat="49.13994" lon="7.33056">
        <ele>314.1</ele>
        <time>2022-07-13T20:46:40Z</time>
      </trkpt>
      <trkpt lat="49.13991" lon="7.33041">
        <ele>314.1</ele>
        <time>2022-07-13T20:46:49Z</time>
      </trkpt>
      <trkpt lat="49.13987" lon="7.33028">
        <ele>314.1</ele>
        <time>2022-07-13T20:46:56Z</time>
      </trkpt>
      <trkpt lat="49.13983" lon="7.33015">
        <ele>314.1</ele>
        <time>2022-07-13T20:47:04Z</time>
      </trkpt>
      <trkpt lat="49.13978" lon="7.33001">
        <ele>314.1</ele>
        <time>2022-07-13T20:47:10Z</time>
      </trkpt>
      <trkpt lat="49.13973" lon="7.32987">
        <ele>314</ele>
        <time>2022-07-13T20:47:17Z</time>
      </trkpt>
      <trkpt lat="49.13969" lon="7.32974">
        <ele>314</ele>
        <time>2022-07-13T20:47:24Z</time>
      </trkpt>
      <trkpt lat="49.13965" lon="7.3296">
        <ele>314</ele>
        <time>2022-07-13T20:47:31Z</time>
      </trkpt>
      <trkpt lat="49.13963" lon="7.32946">
        <ele>314</ele>
        <time>2022-07-13T20:47:39Z</time>
      </trkpt>
      <trkpt lat="49.1396" lon="7.32932">
        <ele>314</ele>
        <time>2022-07-13T20:47:46Z</time>
      </trkpt>
      <trkpt lat="49.13956" lon="7.32919">
        <ele>314</ele>
        <time>2022-07-13T20:47:53Z</time>
      </trkpt>
      <trkpt lat="49.13953" lon="7.32905">
        <ele>314.1</ele>
        <time>2022-07-13T20:48:00Z</time>
      </trkpt>
      <trkpt lat="49.13948" lon="7.32892">
        <ele>314.1</ele>
        <time>2022-07-13T20:48:07Z</time>
      </trkpt>
      <trkpt lat="49.13945" lon="7.32878">
        <ele>314.1</ele>
        <time>2022-07-13T20:48:14Z</time>
      </trkpt>
      <trkpt lat="49.13942" lon="7.32865">
        <ele>314.1</ele>
        <time>2022-07-13T20:48:20Z</time>
      </trkpt>
      <trkpt lat="49.13939" lon="7.32852">
        <ele>314.1</ele>
        <time>2022-07-13T20:48:27Z</time>
      </trkpt>
      <trkpt lat="49.13936" lon="7.32839">
        <ele>314.1</ele>
        <time>2022-07-13T20:48:34Z</time>
      </trkpt>
      <trkpt lat="49.13933" lon="7.32824">
        <ele>314.1</ele>
        <time>2022-07-13T20:48:41Z</time>
      </trkpt>
      <trkpt lat="49.13931" lon="7.3281">
        <ele>314.1</ele>
        <time>2022-07-13T20:48:50Z</time>
      </trkpt>
      <trkpt lat="49.13927" lon="7.32798">
        <ele>314.2</ele>
        <time>2022-07-13T20:48:55Z</time>
      </trkpt>
      <trkpt lat="49.13924" lon="7.32784">
        <ele>314.2</ele>
        <time>2022-07-13T20:49:02Z</time>
      </trkpt>
      <trkpt lat="49.13923" lon="7.3278">
        <ele>314.2</ele>
        <time>2022-07-13T20:49:07Z</time>
      </trkpt>
      <trkpt lat="49.13923" lon="7.3278">
        <ele>314.2</ele>
        <time>2022-07-13T20:49:10Z</time>
      </trkpt>
      <trkpt lat="49.1392" lon="7.32765">
        <ele>314.3</ele>
        <time>2022-07-13T20:49:18Z</time>
      </trkpt>
      <trkpt lat="49.13916" lon="7.32752">
        <ele>314.3</ele>
        <time>2022-07-13T20:49:24Z</time>
      </trkpt>
      <trkpt lat="49.13912" lon="7.32738">
        <ele>314.4</ele>
        <time>2022-07-13T20:49:31Z</time>
      </trkpt>
      <trkpt lat="49.13908" lon="7.32724">
        <ele>314.4</ele>
        <time>2022-07-13T20:49:38Z</time>
      </trkpt>
      <trkpt lat="49.13904" lon="7.32711">
        <ele>314.4</ele>
        <time>2022-07-13T20:49:45Z</time>
      </trkpt>
      <trkpt lat="49.13902" lon="7.32696">
        <ele>314.3</ele>
        <time>2022-07-13T20:49:53Z</time>
      </trkpt>
      <trkpt lat="49.13899" lon="7.32681">
        <ele>314.3</ele>
        <time>2022-07-13T20:50:01Z</time>
      </trkpt>
      <trkpt lat="49.13898" lon="7.32678">
        <ele>314.3</ele>
        <time>2022-07-13T20:50:05Z</time>
      </trkpt>
      <trkpt lat="49.13898" lon="7.32677">
        <ele>314.3</ele>
        <time>2022-07-13T20:50:06Z</time>
      </trkpt>
      <trkpt lat="49.13895" lon="7.32663">
        <ele>314.2</ele>
        <time>2022-07-13T20:50:14Z</time>
      </trkpt>
      <trkpt lat="49.13892" lon="7.32648">
        <ele>314.1</ele>
        <time>2022-07-13T20:50:22Z</time>
      </trkpt>
      <trkpt lat="49.13891" lon="7.32633">
        <ele>314.1</ele>
        <time>2022-07-13T20:50:29Z</time>
      </trkpt>
      <trkpt lat="49.13888" lon="7.32619">
        <ele>314</ele>
        <time>2022-07-13T20:50:36Z</time>
      </trkpt>
      <trkpt lat="49.13885" lon="7.32604">
        <ele>314</ele>
        <time>2022-07-13T20:50:43Z</time>
      </trkpt>
      <trkpt lat="49.13883" lon="7.32591">
        <ele>313.9</ele>
        <time>2022-07-13T20:50:50Z</time>
      </trkpt>
      <trkpt lat="49.1388" lon="7.32576">
        <ele>313.9</ele>
        <time>2022-07-13T20:50:57Z</time>
      </trkpt>
      <trkpt lat="49.13879" lon="7.32561">
        <ele>313.8</ele>
        <time>2022-07-13T20:51:04Z</time>
      </trkpt>
      <trkpt lat="49.13876" lon="7.32547">
        <ele>313.6</ele>
        <time>2022-07-13T20:51:11Z</time>
      </trkpt>
      <trkpt lat="49.13874" lon="7.32534">
        <ele>313.5</ele>
        <time>2022-07-13T20:51:18Z</time>
      </trkpt>
      <trkpt lat="49.13871" lon="7.3252">
        <ele>313.2</ele>
        <time>2022-07-13T20:51:25Z</time>
      </trkpt>
      <trkpt lat="49.13868" lon="7.32506">
        <ele>313</ele>
        <time>2022-07-13T20:51:31Z</time>
      </trkpt>
      <trkpt lat="49.13862" lon="7.32494">
        <ele>312.8</ele>
        <time>2022-07-13T20:51:38Z</time>
      </trkpt>
      <trkpt lat="49.13856" lon="7.32482">
        <ele>312.5</ele>
        <time>2022-07-13T20:51:46Z</time>
      </trkpt>
      <trkpt lat="49.13849" lon="7.32471">
        <ele>312.3</ele>
        <time>2022-07-13T20:51:53Z</time>
      </trkpt>
      <trkpt lat="49.13842" lon="7.32459">
        <ele>312</ele>
        <time>2022-07-13T20:52:01Z</time>
      </trkpt>
      <trkpt lat="49.13835" lon="7.32449">
        <ele>311.7</ele>
        <time>2022-07-13T20:52:08Z</time>
      </trkpt>
      <trkpt lat="49.13827" lon="7.3244">
        <ele>311.4</ele>
        <time>2022-07-13T20:52:15Z</time>
      </trkpt>
      <trkpt lat="49.13819" lon="7.32431">
        <ele>311.1</ele>
        <time>2022-07-13T20:52:22Z</time>
      </trkpt>
      <trkpt lat="49.13812" lon="7.32423">
        <ele>310.8</ele>
        <time>2022-07-13T20:52:28Z</time>
      </trkpt>
      <trkpt lat="49.13803" lon="7.32415">
        <ele>310.5</ele>
        <time>2022-07-13T20:52:35Z</time>
      </trkpt>
      <trkpt lat="49.13796" lon="7.32406">
        <ele>310.2</ele>
        <time>2022-07-13T20:52:42Z</time>
      </trkpt>
      <trkpt lat="49.13787" lon="7.32397">
        <ele>309.9</ele>
        <time>2022-07-13T20:52:49Z</time>
      </trkpt>
      <trkpt lat="49.13778" lon="7.32391">
        <ele>309.8</ele>
        <time>2022-07-13T20:52:57Z</time>
      </trkpt>
      <trkpt lat="49.13769" lon="7.32384">
        <ele>309.6</ele>
        <time>2022-07-13T20:53:04Z</time>
      </trkpt>
      <trkpt lat="49.1376" lon="7.32381">
        <ele>309.5</ele>
        <time>2022-07-13T20:53:11Z</time>
      </trkpt>
      <trkpt lat="49.1375" lon="7.32377">
        <ele>309.4</ele>
        <time>2022-07-13T20:53:19Z</time>
      </trkpt>
      <trkpt lat="49.13744" lon="7.32374">
        <ele>309.4</ele>
        <time>2022-07-13T20:53:28Z</time>
      </trkpt>
      <trkpt lat="49.13744" lon="7.32374">
        <ele>309.4</ele>
        <time>2022-07-13T20:53:30Z</time>
      </trkpt>
      <trkpt lat="49.13743" lon="7.32368">
        <ele>309.4</ele>
        <time>2022-07-13T20:53:39Z</time>
      </trkpt>
      <trkpt lat="49.13743" lon="7.32368">
        <ele>309.4</ele>
        <time>2022-07-13T20:53:40Z</time>
      </trkpt>
      <trkpt lat="49.13734" lon="7.32369">
        <ele>309.4</ele>
        <time>2022-07-13T20:53:48Z</time>
      </trkpt>
      <trkpt lat="49.13725" lon="7.32372">
        <ele>309.4</ele>
        <time>2022-07-13T20:53:55Z</time>
      </trkpt>
      <trkpt lat="49.13715" lon="7.32375">
        <ele>309.3</ele>
        <time>2022-07-13T20:54:02Z</time>
      </trkpt>
      <trkpt lat="49.13706" lon="7.3238">
        <ele>309.2</ele>
        <time>2022-07-13T20:54:11Z</time>
      </trkpt>
      <trkpt lat="49.13697" lon="7.32385">
        <ele>309.1</ele>
        <time>2022-07-13T20:54:18Z</time>
      </trkpt>
      <trkpt lat="49.13687" lon="7.32386">
        <ele>309.1</ele>
        <time>2022-07-13T20:54:25Z</time>
      </trkpt>
      <trkpt lat="49.13678" lon="7.3239">
        <ele>309.2</ele>
        <time>2022-07-13T20:54:32Z</time>
      </trkpt>
      <trkpt lat="49.1367" lon="7.32395">
        <ele>309.3</ele>
        <time>2022-07-13T20:54:38Z</time>
      </trkpt>
      <trkpt lat="49.13661" lon="7.32401">
        <ele>309.6</ele>
        <time>2022-07-13T20:54:45Z</time>
      </trkpt>
      <trkpt lat="49.13652" lon="7.32407">
        <ele>309.9</ele>
        <time>2022-07-13T20:54:52Z</time>
      </trkpt>
      <trkpt lat="49.13641" lon="7.32408">
        <ele>310.2</ele>
        <time>2022-07-13T20:54:59Z</time>
      </trkpt>
      <trkpt lat="49.13631" lon="7.32408">
        <ele>310.5</ele>
        <time>2022-07-13T20:55:06Z</time>
      </trkpt>
      <trkpt lat="49.13622" lon="7.32405">
        <ele>310.7</ele>
        <time>2022-07-13T20:55:12Z</time>
      </trkpt>
      <trkpt lat="49.13613" lon="7.32402">
        <ele>311</ele>
        <time>2022-07-13T20:55:19Z</time>
      </trkpt>
      <trkpt lat="49.13604" lon="7.32401">
        <ele>311.2</ele>
        <time>2022-07-13T20:55:26Z</time>
      </trkpt>
      <trkpt lat="49.13595" lon="7.32404">
        <ele>311.5</ele>
        <time>2022-07-13T20:55:32Z</time>
      </trkpt>
      <trkpt lat="49.13586" lon="7.32411">
        <ele>311.7</ele>
        <time>2022-07-13T20:55:39Z</time>
      </trkpt>
      <trkpt lat="49.13576" lon="7.32416">
        <ele>311.8</ele>
        <time>2022-07-13T20:55:48Z</time>
      </trkpt>
      <trkpt lat="49.13574" lon="7.32419">
        <ele>311.8</ele>
        <time>2022-07-13T20:55:51Z</time>
      </trkpt>
      <trkpt lat="49.13574" lon="7.32419">
        <ele>311.8</ele>
        <time>2022-07-13T20:55:52Z</time>
      </trkpt>
      <trkpt lat="49.13571" lon="7.32417">
        <ele>311.8</ele>
        <time>2022-07-13T20:56:01Z</time>
      </trkpt>
      <trkpt lat="49.13572" lon="7.32416">
        <ele>311.8</ele>
        <time>2022-07-13T20:56:06Z</time>
      </trkpt>
      <trkpt lat="49.1357" lon="7.324">
        <ele>311.7</ele>
        <time>2022-07-13T20:56:15Z</time>
      </trkpt>
      <trkpt lat="49.13569" lon="7.32387">
        <ele>311.6</ele>
        <time>2022-07-13T20:56:20Z</time>
      </trkpt>
      <trkpt lat="49.13569" lon="7.32372">
        <ele>311.5</ele>
        <time>2022-07-13T20:56:27Z</time>
      </trkpt>
      <trkpt lat="49.13569" lon="7.32358">
        <ele>311.4</ele>
        <time>2022-07-13T20:56:35Z</time>
      </trkpt>
      <trkpt lat="49.13567" lon="7.32344">
        <ele>311.4</ele>
        <time>2022-07-13T20:56:42Z</time>
      </trkpt>
      <trkpt lat="49.13565" lon="7.32329">
        <ele>311.3</ele>
        <time>2022-07-13T20:56:49Z</time>
      </trkpt>
      <trkpt lat="49.13566" lon="7.32314">
        <ele>311.2</ele>
        <time>2022-07-13T20:56:57Z</time>
      </trkpt>
      <trkpt lat="49.13564" lon="7.32299">
        <ele>311.1</ele>
        <time>2022-07-13T20:57:04Z</time>
      </trkpt>
      <trkpt lat="49.13563" lon="7.32283">
        <ele>311.1</ele>
        <time>2022-07-13T20:57:11Z</time>
      </trkpt>
      <trkpt lat="49.13563" lon="7.32269">
        <ele>311.1</ele>
        <time>2022-07-13T20:57:17Z</time>
      </trkpt>
      <trkpt lat="49.13567" lon="7.32256">
        <ele>311</ele>
        <time>2022-07-13T20:57:25Z</time>
      </trkpt>
      <trkpt lat="49.13565" lon="7.32243">
        <ele>311</ele>
        <time>2022-07-13T20:57:31Z</time>
      </trkpt>
      <trkpt lat="49.13562" lon="7.32229">
        <ele>311.1</ele>
        <time>2022-07-13T20:57:38Z</time>
      </trkpt>
      <trkpt lat="49.13561" lon="7.32213">
        <ele>311.1</ele>
        <time>2022-07-13T20:57:44Z</time>
      </trkpt>
      <trkpt lat="49.13564" lon="7.322">
        <ele>311.2</ele>
        <time>2022-07-13T20:57:50Z</time>
      </trkpt>
      <trkpt lat="49.13563" lon="7.32186">
        <ele>311.3</ele>
        <time>2022-07-13T20:57:56Z</time>
      </trkpt>
      <trkpt lat="49.13563" lon="7.3217">
        <ele>311.4</ele>
        <time>2022-07-13T20:58:03Z</time>
      </trkpt>
      <trkpt lat="49.13561" lon="7.32153">
        <ele>311.5</ele>
        <time>2022-07-13T20:58:10Z</time>
      </trkpt>
      <trkpt lat="49.13559" lon="7.32138">
        <ele>311.7</ele>
        <time>2022-07-13T20:58:16Z</time>
      </trkpt>
      <trkpt lat="49.13558" lon="7.32122">
        <ele>311.8</ele>
        <time>2022-07-13T20:58:23Z</time>
      </trkpt>
      <trkpt lat="49.13556" lon="7.32109">
        <ele>312</ele>
        <time>2022-07-13T20:58:30Z</time>
      </trkpt>
      <trkpt lat="49.13556" lon="7.32094">
        <ele>312.1</ele>
        <time>2022-07-13T20:58:38Z</time>
      </trkpt>
      <trkpt lat="49.13556" lon="7.32079">
        <ele>312.2</ele>
        <time>2022-07-13T20:58:45Z</time>
      </trkpt>
      <trkpt lat="49.13556" lon="7.32064">
        <ele>312.4</ele>
        <time>2022-07-13T20:58:54Z</time>
      </trkpt>
      <trkpt lat="49.13558" lon="7.3205">
        <ele>312.6</ele>
        <time>2022-07-13T20:59:02Z</time>
      </trkpt>
      <trkpt lat="49.13555" lon="7.32037">
        <ele>312.8</ele>
        <time>2022-07-13T20:59:16Z</time>
      </trkpt>
      <trkpt lat="49.13558" lon="7.32022">
        <ele>313.1</ele>
        <time>2022-07-13T20:59:22Z</time>
      </trkpt>
      <trkpt lat="49.13557" lon="7.32008">
        <ele>313.4</ele>
        <time>2022-07-13T20:59:27Z</time>
      </trkpt>
      <trkpt lat="49.13552" lon="7.31995">
        <ele>313.8</ele>
        <time>2022-07-13T20:59:34Z</time>
      </trkpt>
      <trkpt lat="49.13547" lon="7.31983">
        <ele>314.1</ele>
        <time>2022-07-13T20:59:43Z</time>
      </trkpt>
      <trkpt lat="49.1354" lon="7.31972">
        <ele>314.5</ele>
        <time>2022-07-13T20:59:50Z</time>
      </trkpt>
      <trkpt lat="49.13534" lon="7.31961">
        <ele>314.8</ele>
        <time>2022-07-13T20:59:57Z</time>
      </trkpt>
      <trkpt lat="49.13524" lon="7.31953">
        <ele>315.2</ele>
        <time>2022-07-13T21:00:03Z</time>
      </trkpt>
      <trkpt lat="49.13516" lon="7.31947">
        <ele>315.5</ele>
        <time>2022-07-13T21:00:10Z</time>
      </trkpt>
      <trkpt lat="49.1351" lon="7.31937">
        <ele>315.9</ele>
        <time>2022-07-13T21:00:17Z</time>
      </trkpt>
      <trkpt lat="49.13504" lon="7.31925">
        <ele>316.2</ele>
        <time>2022-07-13T21:00:25Z</time>
      </trkpt>
      <trkpt lat="49.13498" lon="7.31914">
        <ele>316.6</ele>
        <time>2022-07-13T21:00:32Z</time>
      </trkpt>
      <trkpt lat="49.13488" lon="7.31912">
        <ele>317</ele>
        <time>2022-07-13T21:00:38Z</time>
      </trkpt>
      <trkpt lat="49.1348" lon="7.31904">
        <ele>317.3</ele>
        <time>2022-07-13T21:00:45Z</time>
      </trkpt>
      <trkpt lat="49.13471" lon="7.31899">
        <ele>317.7</ele>
        <time>2022-07-13T21:00:52Z</time>
      </trkpt>
      <trkpt lat="49.13464" lon="7.31889">
        <ele>318</ele>
        <time>2022-07-13T21:00:59Z</time>
      </trkpt>
      <trkpt lat="49.13456" lon="7.31879">
        <ele>318.4</ele>
        <time>2022-07-13T21:01:06Z</time>
      </trkpt>
      <trkpt lat="49.13449" lon="7.31869">
        <ele>318.7</ele>
        <time>2022-07-13T21:01:12Z</time>
      </trkpt>
      <trkpt lat="49.13441" lon="7.3186">
        <ele>319.1</ele>
        <time>2022-07-13T21:01:19Z</time>
      </trkpt>
      <trkpt lat="49.13434" lon="7.31851">
        <ele>319.5</ele>
        <time>2022-07-13T21:01:24Z</time>
      </trkpt>
      <trkpt lat="49.13428" lon="7.3184">
        <ele>319.8</ele>
        <time>2022-07-13T21:01:31Z</time>
      </trkpt>
      <trkpt lat="49.13422" lon="7.31827">
        <ele>320.3</ele>
        <time>2022-07-13T21:01:38Z</time>
      </trkpt>
      <trkpt lat="49.13417" lon="7.31813">
        <ele>320.7</ele>
        <time>2022-07-13T21:01:45Z</time>
      </trkpt>
      <trkpt lat="49.13413" lon="7.318">
        <ele>321.1</ele>
        <time>2022-07-13T21:01:53Z</time>
      </trkpt>
      <trkpt lat="49.1341" lon="7.31787">
        <ele>321.6</ele>
        <time>2022-07-13T21:01:59Z</time>
      </trkpt>
      <trkpt lat="49.13406" lon="7.31773">
        <ele>321.9</ele>
        <time>2022-07-13T21:02:07Z</time>
      </trkpt>
      <trkpt lat="49.13402" lon="7.31759">
        <ele>322.3</ele>
        <time>2022-07-13T21:02:14Z</time>
      </trkpt>
      <trkpt lat="49.13398" lon="7.31745">
        <ele>322.6</ele>
        <time>2022-07-13T21:02:20Z</time>
      </trkpt>
      <trkpt lat="49.13395" lon="7.31732">
        <ele>322.9</ele>
        <time>2022-07-13T21:02:26Z</time>
      </trkpt>
      <trkpt lat="49.13391" lon="7.31718">
        <ele>323.3</ele>
        <time>2022-07-13T21:02:34Z</time>
      </trkpt>
      <trkpt lat="49.13386" lon="7.31704">
        <ele>323.7</ele>
        <time>2022-07-13T21:02:40Z</time>
      </trkpt>
      <trkpt lat="49.13381" lon="7.31692">
        <ele>324</ele>
        <time>2022-07-13T21:02:46Z</time>
      </trkpt>
      <trkpt lat="49.13376" lon="7.31678">
        <ele>324.5</ele>
        <time>2022-07-13T21:02:54Z</time>
      </trkpt>
      <trkpt lat="49.13372" lon="7.31664">
        <ele>324.9</ele>
        <time>2022-07-13T21:03:01Z</time>
      </trkpt>
      <trkpt lat="49.13369" lon="7.31651">
        <ele>325.3</ele>
        <time>2022-07-13T21:03:10Z</time>
      </trkpt>
      <trkpt lat="49.13365" lon="7.31636">
        <ele>325.8</ele>
        <time>2022-07-13T21:03:16Z</time>
      </trkpt>
      <trkpt lat="49.13361" lon="7.31624">
        <ele>326.3</ele>
        <time>2022-07-13T21:03:22Z</time>
      </trkpt>
      <trkpt lat="49.13356" lon="7.31611">
        <ele>326.9</ele>
        <time>2022-07-13T21:03:28Z</time>
      </trkpt>
      <trkpt lat="49.13356" lon="7.31612">
        <ele>326.9</ele>
        <time>2022-07-13T21:03:30Z</time>
      </trkpt>
      <trkpt lat="49.13356" lon="7.3161">
        <ele>327</ele>
        <time>2022-07-13T21:03:31Z</time>
      </trkpt>
      <trkpt lat="49.13353" lon="7.31597">
        <ele>327.6</ele>
        <time>2022-07-13T21:03:37Z</time>
      </trkpt>
      <trkpt lat="49.13349" lon="7.31583">
        <ele>328.4</ele>
        <time>2022-07-13T21:03:44Z</time>
      </trkpt>
      <trkpt lat="49.13345" lon="7.31569">
        <ele>329.3</ele>
        <time>2022-07-13T21:03:51Z</time>
      </trkpt>
      <trkpt lat="49.13343" lon="7.31555">
        <ele>330.1</ele>
        <time>2022-07-13T21:03:57Z</time>
      </trkpt>
      <trkpt lat="49.13338" lon="7.31543">
        <ele>330.9</ele>
        <time>2022-07-13T21:04:03Z</time>
      </trkpt>
      <trkpt lat="49.13335" lon="7.3153">
        <ele>331.7</ele>
        <time>2022-07-13T21:04:09Z</time>
      </trkpt>
      <trkpt lat="49.13334" lon="7.31514">
        <ele>332.6</ele>
        <time>2022-07-13T21:04:17Z</time>
      </trkpt>
      <trkpt lat="49.13332" lon="7.315">
        <ele>333.5</ele>
        <time>2022-07-13T21:04:24Z</time>
      </trkpt>
      <trkpt lat="49.1333" lon="7.31486">
        <ele>334.4</ele>
        <time>2022-07-13T21:04:31Z</time>
      </trkpt>
      <trkpt lat="49.13328" lon="7.31472">
        <ele>335.4</ele>
        <time>2022-07-13T21:04:38Z</time>
      </trkpt>
      <trkpt lat="49.13326" lon="7.31458">
        <ele>336.4</ele>
        <time>2022-07-13T21:04:46Z</time>
      </trkpt>
      <trkpt lat="49.13323" lon="7.31443">
        <ele>337.5</ele>
        <time>2022-07-13T21:04:54Z</time>
      </trkpt>
      <trkpt lat="49.13322" lon="7.31429">
        <ele>338.6</ele>
        <time>2022-07-13T21:05:02Z</time>
      </trkpt>
      <trkpt lat="49.1332" lon="7.31415">
        <ele>339.6</ele>
        <time>2022-07-13T21:05:08Z</time>
      </trkpt>
      <trkpt lat="49.13318" lon="7.31401">
        <ele>340.6</ele>
        <time>2022-07-13T21:05:14Z</time>
      </trkpt>
      <trkpt lat="49.13316" lon="7.31387">
        <ele>341.6</ele>
        <time>2022-07-13T21:05:21Z</time>
      </trkpt>
      <trkpt lat="49.1331" lon="7.31375">
        <ele>342.8</ele>
        <time>2022-07-13T21:05:30Z</time>
      </trkpt>
      <trkpt lat="49.13309" lon="7.3136">
        <ele>344</ele>
        <time>2022-07-13T21:05:36Z</time>
      </trkpt>
      <trkpt lat="49.13308" lon="7.31346">
        <ele>345.2</ele>
        <time>2022-07-13T21:05:45Z</time>
      </trkpt>
      <trkpt lat="49.13305" lon="7.31333">
        <ele>346.4</ele>
        <time>2022-07-13T21:05:52Z</time>
      </trkpt>
      <trkpt lat="49.13303" lon="7.31319">
        <ele>347.5</ele>
        <time>2022-07-13T21:05:59Z</time>
      </trkpt>
      <trkpt lat="49.13301" lon="7.31306">
        <ele>348.5</ele>
        <time>2022-07-13T21:06:06Z</time>
      </trkpt>
      <trkpt lat="49.13298" lon="7.31292">
        <ele>349.4</ele>
        <time>2022-07-13T21:06:14Z</time>
      </trkpt>
      <trkpt lat="49.13296" lon="7.31278">
        <ele>350.3</ele>
        <time>2022-07-13T21:06:21Z</time>
      </trkpt>
      <trkpt lat="49.13292" lon="7.31264">
        <ele>351.2</ele>
        <time>2022-07-13T21:06:28Z</time>
      </trkpt>
      <trkpt lat="49.13288" lon="7.31252">
        <ele>352.1</ele>
        <time>2022-07-13T21:06:35Z</time>
      </trkpt>
      <trkpt lat="49.13285" lon="7.31237">
        <ele>353</ele>
        <time>2022-07-13T21:06:43Z</time>
      </trkpt>
      <trkpt lat="49.1328" lon="7.31223">
        <ele>353.9</ele>
        <time>2022-07-13T21:06:50Z</time>
      </trkpt>
      <trkpt lat="49.13279" lon="7.31209">
        <ele>354.7</ele>
        <time>2022-07-13T21:06:56Z</time>
      </trkpt>
      <trkpt lat="49.13277" lon="7.31195">
        <ele>355.4</ele>
        <time>2022-07-13T21:07:02Z</time>
      </trkpt>
      <trkpt lat="49.13274" lon="7.31181">
        <ele>356</ele>
        <time>2022-07-13T21:07:09Z</time>
      </trkpt>
      <trkpt lat="49.13272" lon="7.31174">
        <ele>356.3</ele>
        <time>2022-07-13T21:07:25Z</time>
      </trkpt>
      <trkpt lat="49.13272" lon="7.31174">
        <ele>356.3</ele>
        <time>2022-07-13T21:07:26Z</time>
      </trkpt>
      <trkpt lat="49.13272" lon="7.31174">
        <ele>356.3</ele>
        <time>2022-07-13T21:07:27Z</time>
      </trkpt>
      <trkpt lat="49.13272" lon="7.31174">
        <ele>356.3</ele>
        <time>2022-07-13T21:07:28Z</time>
      </trkpt>
      <trkpt lat="49.13272" lon="7.31173">
        <ele>356.3</ele>
        <time>2022-07-13T21:07:32Z</time>
      </trkpt>
      <trkpt lat="49.13272" lon="7.31173">
        <ele>356.4</ele>
        <time>2022-07-13T21:07:33Z</time>
      </trkpt>
      <trkpt lat="49.13272" lon="7.31173">
        <ele>356.4</ele>
        <time>2022-07-13T21:07:39Z</time>
      </trkpt>
      <trkpt lat="49.13272" lon="7.31173">
        <ele>356.4</ele>
        <time>2022-07-13T21:07:41Z</time>
      </trkpt>
      <trkpt lat="49.13262" lon="7.3117">
        <ele>356.8</ele>
        <time>2022-07-13T21:07:52Z</time>
      </trkpt>
      <trkpt lat="49.13253" lon="7.31163">
        <ele>357.3</ele>
        <time>2022-07-13T21:08:00Z</time>
      </trkpt>
      <trkpt lat="49.13244" lon="7.31158">
        <ele>357.7</ele>
        <time>2022-07-13T21:08:07Z</time>
      </trkpt>
      <trkpt lat="49.13237" lon="7.31148">
        <ele>358</ele>
        <time>2022-07-13T21:08:14Z</time>
      </trkpt>
      <trkpt lat="49.13234" lon="7.31136">
        <ele>358.2</ele>
        <time>2022-07-13T21:08:27Z</time>
      </trkpt>
      <trkpt lat="49.13234" lon="7.31136">
        <ele>358.2</ele>
        <time>2022-07-13T21:08:28Z</time>
      </trkpt>
      <trkpt lat="49.13233" lon="7.31135">
        <ele>358.3</ele>
        <time>2022-07-13T21:08:31Z</time>
      </trkpt>
      <trkpt lat="49.13233" lon="7.31136">
        <ele>358.3</ele>
        <time>2022-07-13T21:08:32Z</time>
      </trkpt>
      <trkpt lat="49.13226" lon="7.31146">
        <ele>358.6</ele>
        <time>2022-07-13T21:08:43Z</time>
      </trkpt>
      <trkpt lat="49.13217" lon="7.31145">
        <ele>358.9</ele>
        <time>2022-07-13T21:08:50Z</time>
      </trkpt>
      <trkpt lat="49.13208" lon="7.31142">
        <ele>359.1</ele>
        <time>2022-07-13T21:08:58Z</time>
      </trkpt>
      <trkpt lat="49.13198" lon="7.31141">
        <ele>359.4</ele>
        <time>2022-07-13T21:09:05Z</time>
      </trkpt>
      <trkpt lat="49.13188" lon="7.31139">
        <ele>359.8</ele>
        <time>2022-07-13T21:09:12Z</time>
      </trkpt>
      <trkpt lat="49.13179" lon="7.31141">
        <ele>360.1</ele>
        <time>2022-07-13T21:09:19Z</time>
      </trkpt>
      <trkpt lat="49.1317" lon="7.31145">
        <ele>360.5</ele>
        <time>2022-07-13T21:09:27Z</time>
      </trkpt>
      <trkpt lat="49.1316" lon="7.31149">
        <ele>360.9</ele>
        <time>2022-07-13T21:09:34Z</time>
      </trkpt>
      <trkpt lat="49.13151" lon="7.31151">
        <ele>361.3</ele>
        <time>2022-07-13T21:09:41Z</time>
      </trkpt>
      <trkpt lat="49.13141" lon="7.31152">
        <ele>361.7</ele>
        <time>2022-07-13T21:09:48Z</time>
      </trkpt>
      <trkpt lat="49.13132" lon="7.31151">
        <ele>362</ele>
        <time>2022-07-13T21:09:55Z</time>
      </trkpt>
      <trkpt lat="49.13123" lon="7.31148">
        <ele>362.4</ele>
        <time>2022-07-13T21:10:02Z</time>
      </trkpt>
      <trkpt lat="49.13114" lon="7.31147">
        <ele>362.7</ele>
        <time>2022-07-13T21:10:09Z</time>
      </trkpt>
      <trkpt lat="49.13112" lon="7.31147">
        <ele>362.7</ele>
        <time>2022-07-13T21:10:13Z</time>
      </trkpt>
      <trkpt lat="49.13111" lon="7.31147">
        <ele>362.7</ele>
        <time>2022-07-13T21:10:16Z</time>
      </trkpt>
      <trkpt lat="49.13102" lon="7.31151">
        <ele>363.2</ele>
        <time>2022-07-13T21:10:23Z</time>
      </trkpt>
      <trkpt lat="49.13093" lon="7.31156">
        <ele>363.6</ele>
        <time>2022-07-13T21:10:30Z</time>
      </trkpt>
      <trkpt lat="49.13083" lon="7.31161">
        <ele>364.3</ele>
        <time>2022-07-13T21:10:37Z</time>
      </trkpt>
      <trkpt lat="49.13074" lon="7.31165">
        <ele>365.1</ele>
        <time>2022-07-13T21:10:44Z</time>
      </trkpt>
      <trkpt lat="49.13066" lon="7.31172">
        <ele>366</ele>
        <time>2022-07-13T21:10:52Z</time>
      </trkpt>
      <trkpt lat="49.13057" lon="7.3118">
        <ele>366.9</ele>
        <time>2022-07-13T21:10:59Z</time>
      </trkpt>
      <trkpt lat="49.13049" lon="7.31188">
        <ele>367.7</ele>
        <time>2022-07-13T21:11:07Z</time>
      </trkpt>
      <trkpt lat="49.13041" lon="7.31198">
        <ele>368.3</ele>
        <time>2022-07-13T21:11:19Z</time>
      </trkpt>
      <trkpt lat="49.13035" lon="7.31208">
        <ele>368.7</ele>
        <time>2022-07-13T21:11:26Z</time>
      </trkpt>
      <trkpt lat="49.13027" lon="7.31219">
        <ele>368.8</ele>
        <time>2022-07-13T21:11:38Z</time>
      </trkpt>
      <trkpt lat="49.13021" lon="7.31233">
        <ele>368.8</ele>
        <time>2022-07-13T21:11:44Z</time>
      </trkpt>
      <trkpt lat="49.13015" lon="7.31246">
        <ele>368.8</ele>
        <time>2022-07-13T21:11:54Z</time>
      </trkpt>
      <trkpt lat="49.13008" lon="7.31257">
        <ele>368.8</ele>
        <time>2022-07-13T21:11:59Z</time>
      </trkpt>
      <trkpt lat="49.13002" lon="7.31267">
        <ele>368.8</ele>
        <time>2022-07-13T21:12:05Z</time>
      </trkpt>
      <trkpt lat="49.12996" lon="7.31278">
        <ele>368.9</ele>
        <time>2022-07-13T21:12:12Z</time>
      </trkpt>
      <trkpt lat="49.1299" lon="7.31289">
        <ele>368.9</ele>
        <time>2022-07-13T21:12:19Z</time>
      </trkpt>
      <trkpt lat="49.12984" lon="7.31301">
        <ele>369</ele>
        <time>2022-07-13T21:12:26Z</time>
      </trkpt>
      <trkpt lat="49.12975" lon="7.31311">
        <ele>369</ele>
        <time>2022-07-13T21:12:33Z</time>
      </trkpt>
      <trkpt lat="49.12967" lon="7.31319">
        <ele>368.9</ele>
        <time>2022-07-13T21:12:41Z</time>
      </trkpt>
      <trkpt lat="49.1296" lon="7.31327">
        <ele>368.7</ele>
        <time>2022-07-13T21:12:48Z</time>
      </trkpt>
      <trkpt lat="49.12952" lon="7.31337">
        <ele>368.3</ele>
        <time>2022-07-13T21:12:54Z</time>
      </trkpt>
      <trkpt lat="49.12946" lon="7.31349">
        <ele>368</ele>
        <time>2022-07-13T21:13:02Z</time>
      </trkpt>
      <trkpt lat="49.12945" lon="7.31373">
        <ele>366.9</ele>
        <time>2022-07-13T21:13:11Z</time>
      </trkpt>
      <trkpt lat="49.12947" lon="7.31382">
        <ele>366.5</ele>
        <time>2022-07-13T21:13:19Z</time>
      </trkpt>
      <trkpt lat="49.12949" lon="7.31391">
        <ele>366.2</ele>
        <time>2022-07-13T21:13:26Z</time>
      </trkpt>
      <trkpt lat="49.12951" lon="7.314">
        <ele>365.7</ele>
        <time>2022-07-13T21:13:34Z</time>
      </trkpt>
      <trkpt lat="49.12953" lon="7.31409">
        <ele>365.3</ele>
        <time>2022-07-13T21:13:42Z</time>
      </trkpt>
      <trkpt lat="49.12955" lon="7.31418">
        <ele>364.8</ele>
        <time>2022-07-13T21:13:51Z</time>
      </trkpt>
      <trkpt lat="49.12956" lon="7.31427">
        <ele>364.3</ele>
        <time>2022-07-13T21:13:54Z</time>
      </trkpt>
      <trkpt lat="49.12958" lon="7.31437">
        <ele>363.8</ele>
        <time>2022-07-13T21:13:54Z</time>
      </trkpt>
    </trkseg>
  </trk>
</gpx>